<?xml version="1.0" encoding="UTF-8" standalone="no" ?>
<gpx xmlns="http://www.topografix.com/GPX/1/1" xmlns:xsi="http://www.w3.org/2001/XMLSchema-instance" xsi:schemaLocation="http://www.topografix.com/GPX/1/1 http://www.topografix.com/GPX/1/1/gpx.xsd" version="1.1" creator="VisuGPX - https://www.visugpx.com">
  <metadata>
    <name>Rando Briis</name>
    <desc><![CDATA[Randonnées pédestre du côté de Briis.]]></desc>
  </metadata>
  <trk>
    <name><![CDATA[2018-04-14 10:52]]></name>
    <trkseg>
      <trkpt lat="48.65122" lon="2.08447">
        <ele>178</ele>
        <time>2018-04-14T10:06:56Z</time>
      </trkpt>
      <trkpt lat="48.65112" lon="2.08441">
        <ele>178</ele>
        <time>2018-04-14T10:06:58Z</time>
      </trkpt>
      <trkpt lat="48.65103" lon="2.08437">
        <ele>178</ele>
        <time>2018-04-14T10:07:00Z</time>
      </trkpt>
      <trkpt lat="48.65094" lon="2.08432">
        <ele>178</ele>
        <time>2018-04-14T10:07:02Z</time>
      </trkpt>
      <trkpt lat="48.65083" lon="2.08427">
        <ele>179</ele>
        <time>2018-04-14T10:07:04Z</time>
      </trkpt>
      <trkpt lat="48.65071" lon="2.08424">
        <ele>178</ele>
        <time>2018-04-14T10:07:06Z</time>
      </trkpt>
      <trkpt lat="48.65058" lon="2.08419">
        <ele>178</ele>
        <time>2018-04-14T10:07:08Z</time>
      </trkpt>
      <trkpt lat="48.65049" lon="2.08422">
        <ele>178</ele>
        <time>2018-04-14T10:07:10Z</time>
      </trkpt>
      <trkpt lat="48.65036" lon="2.08422">
        <ele>178</ele>
        <time>2018-04-14T10:07:12Z</time>
      </trkpt>
      <trkpt lat="48.65024" lon="2.08425">
        <ele>178</ele>
        <time>2018-04-14T10:07:14Z</time>
      </trkpt>
      <trkpt lat="48.65009" lon="2.08425">
        <ele>179</ele>
        <time>2018-04-14T10:07:16Z</time>
      </trkpt>
      <trkpt lat="48.64995" lon="2.08424">
        <ele>178</ele>
        <time>2018-04-14T10:07:18Z</time>
      </trkpt>
      <trkpt lat="48.64979" lon="2.08421">
        <ele>177</ele>
        <time>2018-04-14T10:07:20Z</time>
      </trkpt>
      <trkpt lat="48.64964" lon="2.08419">
        <ele>177</ele>
        <time>2018-04-14T10:07:22Z</time>
      </trkpt>
      <trkpt lat="48.64951" lon="2.08415">
        <ele>179</ele>
        <time>2018-04-14T10:07:24Z</time>
      </trkpt>
      <trkpt lat="48.64939" lon="2.08415">
        <ele>179</ele>
        <time>2018-04-14T10:07:26Z</time>
      </trkpt>
      <trkpt lat="48.64928" lon="2.08415">
        <ele>178</ele>
        <time>2018-04-14T10:07:28Z</time>
      </trkpt>
      <trkpt lat="48.64919" lon="2.08416">
        <ele>178</ele>
        <time>2018-04-14T10:07:30Z</time>
      </trkpt>
      <trkpt lat="48.64908" lon="2.08416">
        <ele>177</ele>
        <time>2018-04-14T10:07:32Z</time>
      </trkpt>
      <trkpt lat="48.64896" lon="2.08419">
        <ele>174</ele>
        <time>2018-04-14T10:07:34Z</time>
      </trkpt>
      <trkpt lat="48.64885" lon="2.08433">
        <ele>172</ele>
        <time>2018-04-14T10:07:36Z</time>
      </trkpt>
      <trkpt lat="48.64875" lon="2.08451">
        <ele>171</ele>
        <time>2018-04-14T10:07:38Z</time>
      </trkpt>
      <trkpt lat="48.64869" lon="2.08467">
        <ele>170</ele>
        <time>2018-04-14T10:07:40Z</time>
      </trkpt>
      <trkpt lat="48.6486" lon="2.08484">
        <ele>169</ele>
        <time>2018-04-14T10:07:42Z</time>
      </trkpt>
      <trkpt lat="48.64851" lon="2.08497">
        <ele>168</ele>
        <time>2018-04-14T10:07:44Z</time>
      </trkpt>
      <trkpt lat="48.64841" lon="2.08505">
        <ele>166</ele>
        <time>2018-04-14T10:07:46Z</time>
      </trkpt>
      <trkpt lat="48.6483" lon="2.08513">
        <ele>163</ele>
        <time>2018-04-14T10:07:48Z</time>
      </trkpt>
      <trkpt lat="48.6482" lon="2.08518">
        <ele>161</ele>
        <time>2018-04-14T10:07:50Z</time>
      </trkpt>
      <trkpt lat="48.64808" lon="2.0852">
        <ele>160</ele>
        <time>2018-04-14T10:07:52Z</time>
      </trkpt>
      <trkpt lat="48.64794" lon="2.0852">
        <ele>159</ele>
        <time>2018-04-14T10:07:54Z</time>
      </trkpt>
      <trkpt lat="48.64778" lon="2.08517">
        <ele>158</ele>
        <time>2018-04-14T10:07:56Z</time>
      </trkpt>
      <trkpt lat="48.64761" lon="2.08514">
        <ele>157</ele>
        <time>2018-04-14T10:07:58Z</time>
      </trkpt>
      <trkpt lat="48.64747" lon="2.08511">
        <ele>152</ele>
        <time>2018-04-14T10:08:00Z</time>
      </trkpt>
      <trkpt lat="48.6473" lon="2.08509">
        <ele>150</ele>
        <time>2018-04-14T10:08:02Z</time>
      </trkpt>
      <trkpt lat="48.64723" lon="2.08505">
        <ele>149</ele>
        <time>2018-04-14T10:08:04Z</time>
      </trkpt>
      <trkpt lat="48.64718" lon="2.08497">
        <ele>148</ele>
        <time>2018-04-14T10:08:06Z</time>
      </trkpt>
      <trkpt lat="48.64721" lon="2.08492">
        <ele>148</ele>
        <time>2018-04-14T10:08:08Z</time>
      </trkpt>
      <trkpt lat="48.64717" lon="2.08487">
        <ele>148</ele>
        <time>2018-04-14T10:08:12Z</time>
      </trkpt>
      <trkpt lat="48.64711" lon="2.08488">
        <ele>147</ele>
        <time>2018-04-14T10:08:14Z</time>
      </trkpt>
      <trkpt lat="48.64703" lon="2.08488">
        <ele>146</ele>
        <time>2018-04-14T10:08:16Z</time>
      </trkpt>
      <trkpt lat="48.64694" lon="2.08489">
        <ele>145</ele>
        <time>2018-04-14T10:08:18Z</time>
      </trkpt>
      <trkpt lat="48.64684" lon="2.08491">
        <ele>144</ele>
        <time>2018-04-14T10:08:20Z</time>
      </trkpt>
      <trkpt lat="48.64676" lon="2.08493">
        <ele>143</ele>
        <time>2018-04-14T10:08:22Z</time>
      </trkpt>
      <trkpt lat="48.64669" lon="2.08498">
        <ele>142</ele>
        <time>2018-04-14T10:08:24Z</time>
      </trkpt>
      <trkpt lat="48.64662" lon="2.08507">
        <ele>139</ele>
        <time>2018-04-14T10:08:26Z</time>
      </trkpt>
      <trkpt lat="48.64656" lon="2.08516">
        <ele>138</ele>
        <time>2018-04-14T10:08:28Z</time>
      </trkpt>
      <trkpt lat="48.64647" lon="2.08525">
        <ele>137</ele>
        <time>2018-04-14T10:08:30Z</time>
      </trkpt>
      <trkpt lat="48.64641" lon="2.08528">
        <ele>137</ele>
        <time>2018-04-14T10:08:32Z</time>
      </trkpt>
      <trkpt lat="48.64638" lon="2.08534">
        <ele>136</ele>
        <time>2018-04-14T10:08:34Z</time>
      </trkpt>
      <trkpt lat="48.64643" lon="2.0854">
        <ele>137</ele>
        <time>2018-04-14T10:08:40Z</time>
      </trkpt>
      <trkpt lat="48.6465" lon="2.08541">
        <ele>137</ele>
        <time>2018-04-14T10:08:46Z</time>
      </trkpt>
      <trkpt lat="48.64652" lon="2.08549">
        <ele>137</ele>
        <time>2018-04-14T10:09:04Z</time>
      </trkpt>
      <trkpt lat="48.64657" lon="2.08549">
        <ele>138</ele>
        <time>2018-04-14T10:09:10Z</time>
      </trkpt>
      <trkpt lat="48.64663" lon="2.08548">
        <ele>138</ele>
        <time>2018-04-14T10:09:14Z</time>
      </trkpt>
      <trkpt lat="48.64672" lon="2.08549">
        <ele>145</ele>
        <time>2018-04-14T10:09:18Z</time>
      </trkpt>
      <trkpt lat="48.64676" lon="2.0855">
        <ele>145</ele>
        <time>2018-04-14T10:09:20Z</time>
      </trkpt>
      <trkpt lat="48.64682" lon="2.08549">
        <ele>146</ele>
        <time>2018-04-14T10:09:22Z</time>
      </trkpt>
      <trkpt lat="48.6469" lon="2.08548">
        <ele>146</ele>
        <time>2018-04-14T10:09:26Z</time>
      </trkpt>
      <trkpt lat="48.64695" lon="2.08549">
        <ele>147</ele>
        <time>2018-04-14T10:09:28Z</time>
      </trkpt>
      <trkpt lat="48.647" lon="2.0855">
        <ele>147</ele>
        <time>2018-04-14T10:09:30Z</time>
      </trkpt>
      <trkpt lat="48.64707" lon="2.08551">
        <ele>147</ele>
        <time>2018-04-14T10:09:34Z</time>
      </trkpt>
      <trkpt lat="48.64716" lon="2.08551">
        <ele>148</ele>
        <time>2018-04-14T10:09:38Z</time>
      </trkpt>
      <trkpt lat="48.64724" lon="2.08552">
        <ele>149</ele>
        <time>2018-04-14T10:09:42Z</time>
      </trkpt>
      <trkpt lat="48.6473" lon="2.08556">
        <ele>149</ele>
        <time>2018-04-14T10:09:46Z</time>
      </trkpt>
      <trkpt lat="48.64736" lon="2.08556">
        <ele>149</ele>
        <time>2018-04-14T10:09:50Z</time>
      </trkpt>
      <trkpt lat="48.64743" lon="2.08557">
        <ele>150</ele>
        <time>2018-04-14T10:09:54Z</time>
      </trkpt>
      <trkpt lat="48.64748" lon="2.08554">
        <ele>150</ele>
        <time>2018-04-14T10:09:58Z</time>
      </trkpt>
      <trkpt lat="48.64755" lon="2.08554">
        <ele>156</ele>
        <time>2018-04-14T10:10:00Z</time>
      </trkpt>
      <trkpt lat="48.64762" lon="2.08555">
        <ele>156</ele>
        <time>2018-04-14T10:10:04Z</time>
      </trkpt>
      <trkpt lat="48.64767" lon="2.08555">
        <ele>156</ele>
        <time>2018-04-14T10:10:06Z</time>
      </trkpt>
      <trkpt lat="48.64773" lon="2.08555">
        <ele>157</ele>
        <time>2018-04-14T10:10:08Z</time>
      </trkpt>
      <trkpt lat="48.64781" lon="2.08555">
        <ele>157</ele>
        <time>2018-04-14T10:10:12Z</time>
      </trkpt>
      <trkpt lat="48.64787" lon="2.08556">
        <ele>158</ele>
        <time>2018-04-14T10:10:16Z</time>
      </trkpt>
      <trkpt lat="48.64793" lon="2.08556">
        <ele>158</ele>
        <time>2018-04-14T10:10:18Z</time>
      </trkpt>
      <trkpt lat="48.64797" lon="2.08556">
        <ele>158</ele>
        <time>2018-04-14T10:10:20Z</time>
      </trkpt>
      <trkpt lat="48.64803" lon="2.08562">
        <ele>158</ele>
        <time>2018-04-14T10:10:24Z</time>
      </trkpt>
      <trkpt lat="48.64805" lon="2.08572">
        <ele>158</ele>
        <time>2018-04-14T10:10:26Z</time>
      </trkpt>
      <trkpt lat="48.64806" lon="2.08579">
        <ele>158</ele>
        <time>2018-04-14T10:10:28Z</time>
      </trkpt>
      <trkpt lat="48.64809" lon="2.08589">
        <ele>156</ele>
        <time>2018-04-14T10:10:30Z</time>
      </trkpt>
      <trkpt lat="48.64811" lon="2.086">
        <ele>156</ele>
        <time>2018-04-14T10:10:32Z</time>
      </trkpt>
      <trkpt lat="48.64806" lon="2.08611">
        <ele>155</ele>
        <time>2018-04-14T10:10:34Z</time>
      </trkpt>
      <trkpt lat="48.64806" lon="2.08622">
        <ele>155</ele>
        <time>2018-04-14T10:10:38Z</time>
      </trkpt>
      <trkpt lat="48.64802" lon="2.08632">
        <ele>155</ele>
        <time>2018-04-14T10:10:44Z</time>
      </trkpt>
      <trkpt lat="48.648" lon="2.0864">
        <ele>154</ele>
        <time>2018-04-14T10:10:48Z</time>
      </trkpt>
      <trkpt lat="48.648" lon="2.08649">
        <ele>154</ele>
        <time>2018-04-14T10:10:52Z</time>
      </trkpt>
      <trkpt lat="48.64801" lon="2.0866">
        <ele>154</ele>
        <time>2018-04-14T10:10:56Z</time>
      </trkpt>
      <trkpt lat="48.64801" lon="2.08668">
        <ele>154</ele>
        <time>2018-04-14T10:11:00Z</time>
      </trkpt>
      <trkpt lat="48.64802" lon="2.08675">
        <ele>154</ele>
        <time>2018-04-14T10:11:06Z</time>
      </trkpt>
      <trkpt lat="48.64806" lon="2.08683">
        <ele>154</ele>
        <time>2018-04-14T10:11:16Z</time>
      </trkpt>
      <trkpt lat="48.64808" lon="2.0869">
        <ele>154</ele>
        <time>2018-04-14T10:11:30Z</time>
      </trkpt>
      <trkpt lat="48.64813" lon="2.08695">
        <ele>154</ele>
        <time>2018-04-14T10:11:44Z</time>
      </trkpt>
      <trkpt lat="48.64818" lon="2.08696">
        <ele>155</ele>
        <time>2018-04-14T10:11:50Z</time>
      </trkpt>
      <trkpt lat="48.64824" lon="2.08697">
        <ele>155</ele>
        <time>2018-04-14T10:11:56Z</time>
      </trkpt>
      <trkpt lat="48.6483" lon="2.08697">
        <ele>155</ele>
        <time>2018-04-14T10:12:02Z</time>
      </trkpt>
      <trkpt lat="48.64835" lon="2.08699">
        <ele>160</ele>
        <time>2018-04-14T10:12:06Z</time>
      </trkpt>
      <trkpt lat="48.64841" lon="2.08702">
        <ele>160</ele>
        <time>2018-04-14T10:12:10Z</time>
      </trkpt>
      <trkpt lat="48.64846" lon="2.08704">
        <ele>161</ele>
        <time>2018-04-14T10:12:14Z</time>
      </trkpt>
      <trkpt lat="48.64852" lon="2.08708">
        <ele>161</ele>
        <time>2018-04-14T10:12:20Z</time>
      </trkpt>
      <trkpt lat="48.64858" lon="2.0871">
        <ele>161</ele>
        <time>2018-04-14T10:12:26Z</time>
      </trkpt>
      <trkpt lat="48.64864" lon="2.08709">
        <ele>162</ele>
        <time>2018-04-14T10:12:30Z</time>
      </trkpt>
      <trkpt lat="48.64869" lon="2.08709">
        <ele>162</ele>
        <time>2018-04-14T10:12:34Z</time>
      </trkpt>
      <trkpt lat="48.64875" lon="2.08709">
        <ele>162</ele>
        <time>2018-04-14T10:12:38Z</time>
      </trkpt>
      <trkpt lat="48.6488" lon="2.08713">
        <ele>163</ele>
        <time>2018-04-14T10:12:42Z</time>
      </trkpt>
      <trkpt lat="48.64886" lon="2.08716">
        <ele>163</ele>
        <time>2018-04-14T10:12:46Z</time>
      </trkpt>
      <trkpt lat="48.6489" lon="2.0872">
        <ele>164</ele>
        <time>2018-04-14T10:12:50Z</time>
      </trkpt>
      <trkpt lat="48.64894" lon="2.08724">
        <ele>164</ele>
        <time>2018-04-14T10:12:54Z</time>
      </trkpt>
      <trkpt lat="48.64901" lon="2.08726">
        <ele>165</ele>
        <time>2018-04-14T10:13:00Z</time>
      </trkpt>
      <trkpt lat="48.64905" lon="2.08728">
        <ele>165</ele>
        <time>2018-04-14T10:13:06Z</time>
      </trkpt>
      <trkpt lat="48.6491" lon="2.08735">
        <ele>166</ele>
        <time>2018-04-14T10:13:10Z</time>
      </trkpt>
      <trkpt lat="48.64915" lon="2.08744">
        <ele>168</ele>
        <time>2018-04-14T10:13:14Z</time>
      </trkpt>
      <trkpt lat="48.64918" lon="2.0875">
        <ele>170</ele>
        <time>2018-04-14T10:13:18Z</time>
      </trkpt>
      <trkpt lat="48.64921" lon="2.08755">
        <ele>171</ele>
        <time>2018-04-14T10:13:22Z</time>
      </trkpt>
      <trkpt lat="48.64925" lon="2.0876">
        <ele>172</ele>
        <time>2018-04-14T10:13:26Z</time>
      </trkpt>
      <trkpt lat="48.64929" lon="2.08767">
        <ele>173</ele>
        <time>2018-04-14T10:13:30Z</time>
      </trkpt>
      <trkpt lat="48.64933" lon="2.08775">
        <ele>174</ele>
        <time>2018-04-14T10:13:34Z</time>
      </trkpt>
      <trkpt lat="48.64936" lon="2.08784">
        <ele>174</ele>
        <time>2018-04-14T10:13:38Z</time>
      </trkpt>
      <trkpt lat="48.64939" lon="2.08793">
        <ele>175</ele>
        <time>2018-04-14T10:13:42Z</time>
      </trkpt>
      <trkpt lat="48.64942" lon="2.08805">
        <ele>175</ele>
        <time>2018-04-14T10:13:46Z</time>
      </trkpt>
      <trkpt lat="48.64944" lon="2.08813">
        <ele>175</ele>
        <time>2018-04-14T10:13:48Z</time>
      </trkpt>
      <trkpt lat="48.64946" lon="2.08819">
        <ele>175</ele>
        <time>2018-04-14T10:13:50Z</time>
      </trkpt>
      <trkpt lat="48.6495" lon="2.08831">
        <ele>176</ele>
        <time>2018-04-14T10:13:54Z</time>
      </trkpt>
      <trkpt lat="48.64952" lon="2.08837">
        <ele>178</ele>
        <time>2018-04-14T10:13:58Z</time>
      </trkpt>
      <trkpt lat="48.64956" lon="2.08835">
        <ele>178</ele>
        <time>2018-04-14T10:14:06Z</time>
      </trkpt>
      <trkpt lat="48.64955" lon="2.08842">
        <ele>178</ele>
        <time>2018-04-14T10:14:24Z</time>
      </trkpt>
      <trkpt lat="48.64952" lon="2.0885">
        <ele>178</ele>
        <time>2018-04-14T10:14:28Z</time>
      </trkpt>
      <trkpt lat="48.64949" lon="2.0886">
        <ele>178</ele>
        <time>2018-04-14T10:14:34Z</time>
      </trkpt>
      <trkpt lat="48.64947" lon="2.08867">
        <ele>178</ele>
        <time>2018-04-14T10:14:38Z</time>
      </trkpt>
      <trkpt lat="48.64945" lon="2.08873">
        <ele>178</ele>
        <time>2018-04-14T10:14:42Z</time>
      </trkpt>
      <trkpt lat="48.64942" lon="2.0888">
        <ele>178</ele>
        <time>2018-04-14T10:14:46Z</time>
      </trkpt>
      <trkpt lat="48.6494" lon="2.08888">
        <ele>178</ele>
        <time>2018-04-14T10:14:50Z</time>
      </trkpt>
      <trkpt lat="48.64937" lon="2.08898">
        <ele>178</ele>
        <time>2018-04-14T10:14:56Z</time>
      </trkpt>
      <trkpt lat="48.64941" lon="2.08891">
        <ele>178</ele>
        <time>2018-04-14T10:15:12Z</time>
      </trkpt>
      <trkpt lat="48.64943" lon="2.08885">
        <ele>178</ele>
        <time>2018-04-14T10:15:18Z</time>
      </trkpt>
      <trkpt lat="48.64939" lon="2.08894">
        <ele>178</ele>
        <time>2018-04-14T10:16:30Z</time>
      </trkpt>
      <trkpt lat="48.64937" lon="2.08902">
        <ele>178</ele>
        <time>2018-04-14T10:16:32Z</time>
      </trkpt>
      <trkpt lat="48.64936" lon="2.08909">
        <ele>178</ele>
        <time>2018-04-14T10:16:34Z</time>
      </trkpt>
      <trkpt lat="48.64933" lon="2.08917">
        <ele>179</ele>
        <time>2018-04-14T10:16:36Z</time>
      </trkpt>
      <trkpt lat="48.64931" lon="2.08924">
        <ele>179</ele>
        <time>2018-04-14T10:16:38Z</time>
      </trkpt>
      <trkpt lat="48.64928" lon="2.08933">
        <ele>179</ele>
        <time>2018-04-14T10:16:40Z</time>
      </trkpt>
      <trkpt lat="48.64925" lon="2.08942">
        <ele>179</ele>
        <time>2018-04-14T10:16:42Z</time>
      </trkpt>
      <trkpt lat="48.6492" lon="2.08953">
        <ele>180</ele>
        <time>2018-04-14T10:16:44Z</time>
      </trkpt>
      <trkpt lat="48.6491" lon="2.08961">
        <ele>178</ele>
        <time>2018-04-14T10:16:46Z</time>
      </trkpt>
      <trkpt lat="48.64901" lon="2.08961">
        <ele>177</ele>
        <time>2018-04-14T10:16:48Z</time>
      </trkpt>
      <trkpt lat="48.64894" lon="2.08961">
        <ele>177</ele>
        <time>2018-04-14T10:16:50Z</time>
      </trkpt>
      <trkpt lat="48.64885" lon="2.0896">
        <ele>177</ele>
        <time>2018-04-14T10:16:52Z</time>
      </trkpt>
      <trkpt lat="48.64875" lon="2.08959">
        <ele>177</ele>
        <time>2018-04-14T10:16:54Z</time>
      </trkpt>
      <trkpt lat="48.64869" lon="2.08958">
        <ele>176</ele>
        <time>2018-04-14T10:16:56Z</time>
      </trkpt>
      <trkpt lat="48.64861" lon="2.0896">
        <ele>176</ele>
        <time>2018-04-14T10:16:58Z</time>
      </trkpt>
      <trkpt lat="48.64853" lon="2.08958">
        <ele>176</ele>
        <time>2018-04-14T10:17:00Z</time>
      </trkpt>
      <trkpt lat="48.64842" lon="2.08957">
        <ele>175</ele>
        <time>2018-04-14T10:17:02Z</time>
      </trkpt>
      <trkpt lat="48.64836" lon="2.08957">
        <ele>175</ele>
        <time>2018-04-14T10:17:04Z</time>
      </trkpt>
      <trkpt lat="48.64831" lon="2.08946">
        <ele>170</ele>
        <time>2018-04-14T10:17:08Z</time>
      </trkpt>
      <trkpt lat="48.64825" lon="2.08937">
        <ele>169</ele>
        <time>2018-04-14T10:17:10Z</time>
      </trkpt>
      <trkpt lat="48.64821" lon="2.0893">
        <ele>169</ele>
        <time>2018-04-14T10:17:12Z</time>
      </trkpt>
      <trkpt lat="48.64816" lon="2.08922">
        <ele>169</ele>
        <time>2018-04-14T10:17:16Z</time>
      </trkpt>
      <trkpt lat="48.64811" lon="2.08923">
        <ele>169</ele>
        <time>2018-04-14T10:17:20Z</time>
      </trkpt>
      <trkpt lat="48.64805" lon="2.08919">
        <ele>168</ele>
        <time>2018-04-14T10:17:24Z</time>
      </trkpt>
      <trkpt lat="48.64812" lon="2.08911">
        <ele>165</ele>
        <time>2018-04-14T10:17:28Z</time>
      </trkpt>
      <trkpt lat="48.64817" lon="2.08904">
        <ele>165</ele>
        <time>2018-04-14T10:17:32Z</time>
      </trkpt>
      <trkpt lat="48.64824" lon="2.08899">
        <ele>165</ele>
        <time>2018-04-14T10:17:36Z</time>
      </trkpt>
      <trkpt lat="48.64836" lon="2.08888">
        <ele>170</ele>
        <time>2018-04-14T10:17:38Z</time>
      </trkpt>
      <trkpt lat="48.64836" lon="2.08881">
        <ele>170</ele>
        <time>2018-04-14T10:17:40Z</time>
      </trkpt>
      <trkpt lat="48.64832" lon="2.08875">
        <ele>163</ele>
        <time>2018-04-14T10:17:42Z</time>
      </trkpt>
      <trkpt lat="48.64826" lon="2.08872">
        <ele>163</ele>
        <time>2018-04-14T10:17:44Z</time>
      </trkpt>
      <trkpt lat="48.64817" lon="2.08875">
        <ele>163</ele>
        <time>2018-04-14T10:17:48Z</time>
      </trkpt>
      <trkpt lat="48.6481" lon="2.08873">
        <ele>162</ele>
        <time>2018-04-14T10:17:52Z</time>
      </trkpt>
      <trkpt lat="48.64806" lon="2.08867">
        <ele>162</ele>
        <time>2018-04-14T10:17:54Z</time>
      </trkpt>
      <trkpt lat="48.64802" lon="2.08856">
        <ele>161</ele>
        <time>2018-04-14T10:17:56Z</time>
      </trkpt>
      <trkpt lat="48.64793" lon="2.08844">
        <ele>161</ele>
        <time>2018-04-14T10:17:58Z</time>
      </trkpt>
      <trkpt lat="48.64783" lon="2.08833">
        <ele>157</ele>
        <time>2018-04-14T10:18:00Z</time>
      </trkpt>
      <trkpt lat="48.64774" lon="2.08825">
        <ele>156</ele>
        <time>2018-04-14T10:18:02Z</time>
      </trkpt>
      <trkpt lat="48.64766" lon="2.0882">
        <ele>156</ele>
        <time>2018-04-14T10:18:04Z</time>
      </trkpt>
      <trkpt lat="48.6476" lon="2.0882">
        <ele>155</ele>
        <time>2018-04-14T10:18:06Z</time>
      </trkpt>
      <trkpt lat="48.64757" lon="2.08826">
        <ele>155</ele>
        <time>2018-04-14T10:18:08Z</time>
      </trkpt>
      <trkpt lat="48.64752" lon="2.08837">
        <ele>155</ele>
        <time>2018-04-14T10:18:10Z</time>
      </trkpt>
      <trkpt lat="48.64748" lon="2.08832">
        <ele>153</ele>
        <time>2018-04-14T10:18:12Z</time>
      </trkpt>
      <trkpt lat="48.64742" lon="2.08822">
        <ele>151</ele>
        <time>2018-04-14T10:18:14Z</time>
      </trkpt>
      <trkpt lat="48.64735" lon="2.08819">
        <ele>151</ele>
        <time>2018-04-14T10:18:16Z</time>
      </trkpt>
      <trkpt lat="48.64725" lon="2.08816">
        <ele>150</ele>
        <time>2018-04-14T10:18:18Z</time>
      </trkpt>
      <trkpt lat="48.64717" lon="2.08806">
        <ele>149</ele>
        <time>2018-04-14T10:18:20Z</time>
      </trkpt>
      <trkpt lat="48.64707" lon="2.08799">
        <ele>148</ele>
        <time>2018-04-14T10:18:22Z</time>
      </trkpt>
      <trkpt lat="48.64704" lon="2.0879">
        <ele>148</ele>
        <time>2018-04-14T10:18:24Z</time>
      </trkpt>
      <trkpt lat="48.64697" lon="2.0878">
        <ele>148</ele>
        <time>2018-04-14T10:18:26Z</time>
      </trkpt>
      <trkpt lat="48.64686" lon="2.08767">
        <ele>147</ele>
        <time>2018-04-14T10:18:28Z</time>
      </trkpt>
      <trkpt lat="48.64674" lon="2.0876">
        <ele>146</ele>
        <time>2018-04-14T10:18:30Z</time>
      </trkpt>
      <trkpt lat="48.64659" lon="2.08752">
        <ele>142</ele>
        <time>2018-04-14T10:18:32Z</time>
      </trkpt>
      <trkpt lat="48.64653" lon="2.08751">
        <ele>141</ele>
        <time>2018-04-14T10:18:34Z</time>
      </trkpt>
      <trkpt lat="48.64645" lon="2.08754">
        <ele>140</ele>
        <time>2018-04-14T10:18:36Z</time>
      </trkpt>
      <trkpt lat="48.6464" lon="2.0877">
        <ele>139</ele>
        <time>2018-04-14T10:18:38Z</time>
      </trkpt>
      <trkpt lat="48.64631" lon="2.0879">
        <ele>138</ele>
        <time>2018-04-14T10:18:40Z</time>
      </trkpt>
      <trkpt lat="48.64627" lon="2.08812">
        <ele>137</ele>
        <time>2018-04-14T10:18:42Z</time>
      </trkpt>
      <trkpt lat="48.64626" lon="2.08832">
        <ele>137</ele>
        <time>2018-04-14T10:18:44Z</time>
      </trkpt>
      <trkpt lat="48.64629" lon="2.08837">
        <ele>139</ele>
        <time>2018-04-14T10:18:50Z</time>
      </trkpt>
      <trkpt lat="48.64629" lon="2.08846">
        <ele>139</ele>
        <time>2018-04-14T10:18:54Z</time>
      </trkpt>
      <trkpt lat="48.64626" lon="2.08854">
        <ele>139</ele>
        <time>2018-04-14T10:18:58Z</time>
      </trkpt>
      <trkpt lat="48.64626" lon="2.08862">
        <ele>139</ele>
        <time>2018-04-14T10:19:02Z</time>
      </trkpt>
      <trkpt lat="48.64628" lon="2.0887">
        <ele>139</ele>
        <time>2018-04-14T10:19:12Z</time>
      </trkpt>
      <trkpt lat="48.64631" lon="2.08878">
        <ele>140</ele>
        <time>2018-04-14T10:19:22Z</time>
      </trkpt>
      <trkpt lat="48.64636" lon="2.08883">
        <ele>140</ele>
        <time>2018-04-14T10:19:28Z</time>
      </trkpt>
      <trkpt lat="48.6464" lon="2.08887">
        <ele>141</ele>
        <time>2018-04-14T10:19:40Z</time>
      </trkpt>
      <trkpt lat="48.64644" lon="2.08892">
        <ele>141</ele>
        <time>2018-04-14T10:19:46Z</time>
      </trkpt>
      <trkpt lat="48.64648" lon="2.08897">
        <ele>142</ele>
        <time>2018-04-14T10:19:52Z</time>
      </trkpt>
      <trkpt lat="48.64651" lon="2.08903">
        <ele>143</ele>
        <time>2018-04-14T10:19:56Z</time>
      </trkpt>
      <trkpt lat="48.64655" lon="2.08907">
        <ele>144</ele>
        <time>2018-04-14T10:20:02Z</time>
      </trkpt>
      <trkpt lat="48.64659" lon="2.08913">
        <ele>146</ele>
        <time>2018-04-14T10:20:08Z</time>
      </trkpt>
      <trkpt lat="48.64662" lon="2.0892">
        <ele>148</ele>
        <time>2018-04-14T10:20:14Z</time>
      </trkpt>
      <trkpt lat="48.64667" lon="2.08926">
        <ele>152</ele>
        <time>2018-04-14T10:20:20Z</time>
      </trkpt>
      <trkpt lat="48.64672" lon="2.08929">
        <ele>152</ele>
        <time>2018-04-14T10:20:26Z</time>
      </trkpt>
      <trkpt lat="48.64676" lon="2.08934">
        <ele>153</ele>
        <time>2018-04-14T10:20:30Z</time>
      </trkpt>
      <trkpt lat="48.6468" lon="2.08939">
        <ele>154</ele>
        <time>2018-04-14T10:20:36Z</time>
      </trkpt>
      <trkpt lat="48.64684" lon="2.08943">
        <ele>155</ele>
        <time>2018-04-14T10:20:40Z</time>
      </trkpt>
      <trkpt lat="48.64688" lon="2.08946">
        <ele>155</ele>
        <time>2018-04-14T10:20:44Z</time>
      </trkpt>
      <trkpt lat="48.64693" lon="2.08948">
        <ele>156</ele>
        <time>2018-04-14T10:20:48Z</time>
      </trkpt>
      <trkpt lat="48.64698" lon="2.08951">
        <ele>156</ele>
        <time>2018-04-14T10:20:52Z</time>
      </trkpt>
      <trkpt lat="48.64702" lon="2.08955">
        <ele>157</ele>
        <time>2018-04-14T10:20:58Z</time>
      </trkpt>
      <trkpt lat="48.64705" lon="2.08961">
        <ele>157</ele>
        <time>2018-04-14T10:21:02Z</time>
      </trkpt>
      <trkpt lat="48.64709" lon="2.08966">
        <ele>158</ele>
        <time>2018-04-14T10:21:06Z</time>
      </trkpt>
      <trkpt lat="48.64713" lon="2.08968">
        <ele>158</ele>
        <time>2018-04-14T10:21:10Z</time>
      </trkpt>
      <trkpt lat="48.64718" lon="2.08968">
        <ele>159</ele>
        <time>2018-04-14T10:21:14Z</time>
      </trkpt>
      <trkpt lat="48.64722" lon="2.08969">
        <ele>159</ele>
        <time>2018-04-14T10:21:18Z</time>
      </trkpt>
      <trkpt lat="48.64726" lon="2.08975">
        <ele>160</ele>
        <time>2018-04-14T10:21:24Z</time>
      </trkpt>
      <trkpt lat="48.64727" lon="2.08983">
        <ele>161</ele>
        <time>2018-04-14T10:21:28Z</time>
      </trkpt>
      <trkpt lat="48.64728" lon="2.0899">
        <ele>162</ele>
        <time>2018-04-14T10:21:38Z</time>
      </trkpt>
      <trkpt lat="48.64726" lon="2.08996">
        <ele>162</ele>
        <time>2018-04-14T10:21:58Z</time>
      </trkpt>
      <trkpt lat="48.64721" lon="2.08998">
        <ele>161</ele>
        <time>2018-04-14T10:25:52Z</time>
      </trkpt>
      <trkpt lat="48.64717" lon="2.09">
        <ele>163</ele>
        <time>2018-04-14T10:26:14Z</time>
      </trkpt>
      <trkpt lat="48.64712" lon="2.09002">
        <ele>163</ele>
        <time>2018-04-14T10:26:22Z</time>
      </trkpt>
      <trkpt lat="48.64706" lon="2.09005">
        <ele>162</ele>
        <time>2018-04-14T10:26:32Z</time>
      </trkpt>
      <trkpt lat="48.64701" lon="2.09009">
        <ele>161</ele>
        <time>2018-04-14T10:26:42Z</time>
      </trkpt>
      <trkpt lat="48.64696" lon="2.09009">
        <ele>160</ele>
        <time>2018-04-14T10:26:50Z</time>
      </trkpt>
      <trkpt lat="48.64693" lon="2.09005">
        <ele>160</ele>
        <time>2018-04-14T10:27:00Z</time>
      </trkpt>
      <trkpt lat="48.6469" lon="2.09011">
        <ele>159</ele>
        <time>2018-04-14T10:27:10Z</time>
      </trkpt>
      <trkpt lat="48.64686" lon="2.09015">
        <ele>159</ele>
        <time>2018-04-14T10:27:14Z</time>
      </trkpt>
      <trkpt lat="48.64681" lon="2.09016">
        <ele>159</ele>
        <time>2018-04-14T10:27:16Z</time>
      </trkpt>
      <trkpt lat="48.64673" lon="2.09016">
        <ele>158</ele>
        <time>2018-04-14T10:27:18Z</time>
      </trkpt>
      <trkpt lat="48.64668" lon="2.09016">
        <ele>157</ele>
        <time>2018-04-14T10:27:20Z</time>
      </trkpt>
      <trkpt lat="48.64664" lon="2.0902">
        <ele>150</ele>
        <time>2018-04-14T10:27:22Z</time>
      </trkpt>
      <trkpt lat="48.64656" lon="2.0903">
        <ele>149</ele>
        <time>2018-04-14T10:27:26Z</time>
      </trkpt>
      <trkpt lat="48.64648" lon="2.0904">
        <ele>148</ele>
        <time>2018-04-14T10:27:28Z</time>
      </trkpt>
      <trkpt lat="48.64645" lon="2.09047">
        <ele>148</ele>
        <time>2018-04-14T10:27:30Z</time>
      </trkpt>
      <trkpt lat="48.64638" lon="2.09054">
        <ele>148</ele>
        <time>2018-04-14T10:27:34Z</time>
      </trkpt>
      <trkpt lat="48.64633" lon="2.09058">
        <ele>148</ele>
        <time>2018-04-14T10:27:36Z</time>
      </trkpt>
      <trkpt lat="48.64624" lon="2.09066">
        <ele>147</ele>
        <time>2018-04-14T10:27:38Z</time>
      </trkpt>
      <trkpt lat="48.64614" lon="2.0908">
        <ele>146</ele>
        <time>2018-04-14T10:27:40Z</time>
      </trkpt>
      <trkpt lat="48.6461" lon="2.09084">
        <ele>148</ele>
        <time>2018-04-14T10:27:52Z</time>
      </trkpt>
      <trkpt lat="48.64605" lon="2.09088">
        <ele>147</ele>
        <time>2018-04-14T10:27:58Z</time>
      </trkpt>
      <trkpt lat="48.646" lon="2.09093">
        <ele>147</ele>
        <time>2018-04-14T10:28:06Z</time>
      </trkpt>
      <trkpt lat="48.64596" lon="2.09098">
        <ele>147</ele>
        <time>2018-04-14T10:28:14Z</time>
      </trkpt>
      <trkpt lat="48.64591" lon="2.09099">
        <ele>146</ele>
        <time>2018-04-14T10:28:20Z</time>
      </trkpt>
      <trkpt lat="48.64588" lon="2.09105">
        <ele>147</ele>
        <time>2018-04-14T10:28:26Z</time>
      </trkpt>
      <trkpt lat="48.64587" lon="2.09112">
        <ele>148</ele>
        <time>2018-04-14T10:28:32Z</time>
      </trkpt>
      <trkpt lat="48.64587" lon="2.09121">
        <ele>149</ele>
        <time>2018-04-14T10:28:38Z</time>
      </trkpt>
      <trkpt lat="48.64587" lon="2.09129">
        <ele>150</ele>
        <time>2018-04-14T10:28:48Z</time>
      </trkpt>
      <trkpt lat="48.64586" lon="2.09136">
        <ele>150</ele>
        <time>2018-04-14T10:28:52Z</time>
      </trkpt>
      <trkpt lat="48.64585" lon="2.09145">
        <ele>150</ele>
        <time>2018-04-14T10:28:58Z</time>
      </trkpt>
      <trkpt lat="48.64584" lon="2.09152">
        <ele>150</ele>
        <time>2018-04-14T10:29:02Z</time>
      </trkpt>
      <trkpt lat="48.64584" lon="2.09162">
        <ele>149</ele>
        <time>2018-04-14T10:29:14Z</time>
      </trkpt>
      <trkpt lat="48.64582" lon="2.09171">
        <ele>148</ele>
        <time>2018-04-14T10:29:18Z</time>
      </trkpt>
      <trkpt lat="48.64581" lon="2.0918">
        <ele>146</ele>
        <time>2018-04-14T10:29:20Z</time>
      </trkpt>
      <trkpt lat="48.6458" lon="2.09194">
        <ele>145</ele>
        <time>2018-04-14T10:29:24Z</time>
      </trkpt>
      <trkpt lat="48.64579" lon="2.09202">
        <ele>145</ele>
        <time>2018-04-14T10:29:26Z</time>
      </trkpt>
      <trkpt lat="48.64578" lon="2.09211">
        <ele>145</ele>
        <time>2018-04-14T10:29:28Z</time>
      </trkpt>
      <trkpt lat="48.64579" lon="2.09224">
        <ele>146</ele>
        <time>2018-04-14T10:29:30Z</time>
      </trkpt>
      <trkpt lat="48.64577" lon="2.09242">
        <ele>147</ele>
        <time>2018-04-14T10:29:32Z</time>
      </trkpt>
      <trkpt lat="48.64575" lon="2.09253">
        <ele>148</ele>
        <time>2018-04-14T10:29:34Z</time>
      </trkpt>
      <trkpt lat="48.64577" lon="2.09263">
        <ele>147</ele>
        <time>2018-04-14T10:29:36Z</time>
      </trkpt>
      <trkpt lat="48.64575" lon="2.09271">
        <ele>146</ele>
        <time>2018-04-14T10:29:38Z</time>
      </trkpt>
      <trkpt lat="48.64572" lon="2.09281">
        <ele>145</ele>
        <time>2018-04-14T10:29:42Z</time>
      </trkpt>
      <trkpt lat="48.64571" lon="2.09291">
        <ele>145</ele>
        <time>2018-04-14T10:29:46Z</time>
      </trkpt>
      <trkpt lat="48.64569" lon="2.093">
        <ele>145</ele>
        <time>2018-04-14T10:29:50Z</time>
      </trkpt>
      <trkpt lat="48.64568" lon="2.09311">
        <ele>146</ele>
        <time>2018-04-14T10:29:54Z</time>
      </trkpt>
      <trkpt lat="48.64566" lon="2.0932">
        <ele>146</ele>
        <time>2018-04-14T10:29:58Z</time>
      </trkpt>
      <trkpt lat="48.64565" lon="2.09331">
        <ele>146</ele>
        <time>2018-04-14T10:30:02Z</time>
      </trkpt>
      <trkpt lat="48.64562" lon="2.09338">
        <ele>147</ele>
        <time>2018-04-14T10:30:04Z</time>
      </trkpt>
      <trkpt lat="48.6456" lon="2.09348">
        <ele>147</ele>
        <time>2018-04-14T10:30:08Z</time>
      </trkpt>
      <trkpt lat="48.64558" lon="2.09358">
        <ele>147</ele>
        <time>2018-04-14T10:30:16Z</time>
      </trkpt>
      <trkpt lat="48.64557" lon="2.09368">
        <ele>147</ele>
        <time>2018-04-14T10:30:20Z</time>
      </trkpt>
      <trkpt lat="48.64553" lon="2.09377">
        <ele>147</ele>
        <time>2018-04-14T10:30:24Z</time>
      </trkpt>
      <trkpt lat="48.64556" lon="2.09387">
        <ele>147</ele>
        <time>2018-04-14T10:30:28Z</time>
      </trkpt>
      <trkpt lat="48.64554" lon="2.09397">
        <ele>147</ele>
        <time>2018-04-14T10:30:34Z</time>
      </trkpt>
      <trkpt lat="48.64553" lon="2.09407">
        <ele>148</ele>
        <time>2018-04-14T10:30:38Z</time>
      </trkpt>
      <trkpt lat="48.64549" lon="2.09416">
        <ele>147</ele>
        <time>2018-04-14T10:30:42Z</time>
      </trkpt>
      <trkpt lat="48.64548" lon="2.09424">
        <ele>149</ele>
        <time>2018-04-14T10:30:44Z</time>
      </trkpt>
      <trkpt lat="48.64544" lon="2.09434">
        <ele>149</ele>
        <time>2018-04-14T10:30:48Z</time>
      </trkpt>
      <trkpt lat="48.6454" lon="2.09444">
        <ele>149</ele>
        <time>2018-04-14T10:30:52Z</time>
      </trkpt>
      <trkpt lat="48.64537" lon="2.0945">
        <ele>149</ele>
        <time>2018-04-14T10:30:54Z</time>
      </trkpt>
      <trkpt lat="48.64534" lon="2.09456">
        <ele>149</ele>
        <time>2018-04-14T10:30:56Z</time>
      </trkpt>
      <trkpt lat="48.64532" lon="2.09464">
        <ele>149</ele>
        <time>2018-04-14T10:30:58Z</time>
      </trkpt>
      <trkpt lat="48.64528" lon="2.09468">
        <ele>149</ele>
        <time>2018-04-14T10:31:00Z</time>
      </trkpt>
      <trkpt lat="48.64524" lon="2.09472">
        <ele>149</ele>
        <time>2018-04-14T10:31:02Z</time>
      </trkpt>
      <trkpt lat="48.64519" lon="2.09479">
        <ele>149</ele>
        <time>2018-04-14T10:31:06Z</time>
      </trkpt>
      <trkpt lat="48.64512" lon="2.09486">
        <ele>149</ele>
        <time>2018-04-14T10:31:10Z</time>
      </trkpt>
      <trkpt lat="48.64506" lon="2.09495">
        <ele>150</ele>
        <time>2018-04-14T10:31:16Z</time>
      </trkpt>
      <trkpt lat="48.645" lon="2.09501">
        <ele>150</ele>
        <time>2018-04-14T10:31:20Z</time>
      </trkpt>
      <trkpt lat="48.64495" lon="2.09507">
        <ele>148</ele>
        <time>2018-04-14T10:31:24Z</time>
      </trkpt>
      <trkpt lat="48.6449" lon="2.0951">
        <ele>147</ele>
        <time>2018-04-14T10:31:58Z</time>
      </trkpt>
      <trkpt lat="48.64487" lon="2.09517">
        <ele>146</ele>
        <time>2018-04-14T10:32:02Z</time>
      </trkpt>
      <trkpt lat="48.64485" lon="2.09524">
        <ele>146</ele>
        <time>2018-04-14T10:32:04Z</time>
      </trkpt>
      <trkpt lat="48.64479" lon="2.09533">
        <ele>145</ele>
        <time>2018-04-14T10:32:06Z</time>
      </trkpt>
      <trkpt lat="48.64471" lon="2.09543">
        <ele>145</ele>
        <time>2018-04-14T10:32:08Z</time>
      </trkpt>
      <trkpt lat="48.64469" lon="2.09553">
        <ele>145</ele>
        <time>2018-04-14T10:32:10Z</time>
      </trkpt>
      <trkpt lat="48.64464" lon="2.09565">
        <ele>145</ele>
        <time>2018-04-14T10:32:12Z</time>
      </trkpt>
      <trkpt lat="48.64461" lon="2.0958">
        <ele>144</ele>
        <time>2018-04-14T10:32:14Z</time>
      </trkpt>
      <trkpt lat="48.64454" lon="2.09596">
        <ele>145</ele>
        <time>2018-04-14T10:32:16Z</time>
      </trkpt>
      <trkpt lat="48.6445" lon="2.09611">
        <ele>145</ele>
        <time>2018-04-14T10:32:18Z</time>
      </trkpt>
      <trkpt lat="48.64449" lon="2.09626">
        <ele>145</ele>
        <time>2018-04-14T10:32:20Z</time>
      </trkpt>
      <trkpt lat="48.64444" lon="2.09636">
        <ele>145</ele>
        <time>2018-04-14T10:32:22Z</time>
      </trkpt>
      <trkpt lat="48.6444" lon="2.09649">
        <ele>145</ele>
        <time>2018-04-14T10:32:24Z</time>
      </trkpt>
      <trkpt lat="48.64437" lon="2.0966">
        <ele>144</ele>
        <time>2018-04-14T10:32:26Z</time>
      </trkpt>
      <trkpt lat="48.64432" lon="2.09672">
        <ele>144</ele>
        <time>2018-04-14T10:32:28Z</time>
      </trkpt>
      <trkpt lat="48.6443" lon="2.09685">
        <ele>144</ele>
        <time>2018-04-14T10:32:30Z</time>
      </trkpt>
      <trkpt lat="48.64428" lon="2.09696">
        <ele>145</ele>
        <time>2018-04-14T10:32:32Z</time>
      </trkpt>
      <trkpt lat="48.64431" lon="2.09708">
        <ele>145</ele>
        <time>2018-04-14T10:32:34Z</time>
      </trkpt>
      <trkpt lat="48.64433" lon="2.09715">
        <ele>145</ele>
        <time>2018-04-14T10:32:36Z</time>
      </trkpt>
      <trkpt lat="48.64435" lon="2.09726">
        <ele>145</ele>
        <time>2018-04-14T10:32:38Z</time>
      </trkpt>
      <trkpt lat="48.64438" lon="2.09733">
        <ele>145</ele>
        <time>2018-04-14T10:32:40Z</time>
      </trkpt>
      <trkpt lat="48.64441" lon="2.09742">
        <ele>145</ele>
        <time>2018-04-14T10:32:42Z</time>
      </trkpt>
      <trkpt lat="48.64442" lon="2.09751">
        <ele>144</ele>
        <time>2018-04-14T10:32:44Z</time>
      </trkpt>
      <trkpt lat="48.64445" lon="2.09761">
        <ele>144</ele>
        <time>2018-04-14T10:32:46Z</time>
      </trkpt>
      <trkpt lat="48.64444" lon="2.09773">
        <ele>144</ele>
        <time>2018-04-14T10:32:50Z</time>
      </trkpt>
      <trkpt lat="48.6444" lon="2.09781">
        <ele>144</ele>
        <time>2018-04-14T10:33:02Z</time>
      </trkpt>
      <trkpt lat="48.64434" lon="2.09784">
        <ele>144</ele>
        <time>2018-04-14T10:33:06Z</time>
      </trkpt>
      <trkpt lat="48.64429" lon="2.09783">
        <ele>144</ele>
        <time>2018-04-14T10:33:08Z</time>
      </trkpt>
      <trkpt lat="48.64424" lon="2.09782">
        <ele>144</ele>
        <time>2018-04-14T10:33:10Z</time>
      </trkpt>
      <trkpt lat="48.64414" lon="2.09777">
        <ele>140</ele>
        <time>2018-04-14T10:33:14Z</time>
      </trkpt>
      <trkpt lat="48.64409" lon="2.09773">
        <ele>140</ele>
        <time>2018-04-14T10:33:16Z</time>
      </trkpt>
      <trkpt lat="48.64405" lon="2.09768">
        <ele>141</ele>
        <time>2018-04-14T10:33:18Z</time>
      </trkpt>
      <trkpt lat="48.64402" lon="2.09763">
        <ele>141</ele>
        <time>2018-04-14T10:33:20Z</time>
      </trkpt>
      <trkpt lat="48.64397" lon="2.09758">
        <ele>140</ele>
        <time>2018-04-14T10:33:22Z</time>
      </trkpt>
      <trkpt lat="48.64394" lon="2.09754">
        <ele>140</ele>
        <time>2018-04-14T10:33:24Z</time>
      </trkpt>
      <trkpt lat="48.6439" lon="2.09747">
        <ele>140</ele>
        <time>2018-04-14T10:33:26Z</time>
      </trkpt>
      <trkpt lat="48.64387" lon="2.09738">
        <ele>139</ele>
        <time>2018-04-14T10:33:28Z</time>
      </trkpt>
      <trkpt lat="48.64383" lon="2.09732">
        <ele>139</ele>
        <time>2018-04-14T10:33:30Z</time>
      </trkpt>
      <trkpt lat="48.64376" lon="2.09722">
        <ele>138</ele>
        <time>2018-04-14T10:33:32Z</time>
      </trkpt>
      <trkpt lat="48.64368" lon="2.09712">
        <ele>138</ele>
        <time>2018-04-14T10:33:34Z</time>
      </trkpt>
      <trkpt lat="48.64356" lon="2.09698">
        <ele>137</ele>
        <time>2018-04-14T10:33:36Z</time>
      </trkpt>
      <trkpt lat="48.64348" lon="2.09692">
        <ele>136</ele>
        <time>2018-04-14T10:33:38Z</time>
      </trkpt>
      <trkpt lat="48.6434" lon="2.09692">
        <ele>136</ele>
        <time>2018-04-14T10:33:40Z</time>
      </trkpt>
      <trkpt lat="48.64333" lon="2.09704">
        <ele>130</ele>
        <time>2018-04-14T10:33:42Z</time>
      </trkpt>
      <trkpt lat="48.64331" lon="2.0972">
        <ele>130</ele>
        <time>2018-04-14T10:33:44Z</time>
      </trkpt>
      <trkpt lat="48.64329" lon="2.09739">
        <ele>132</ele>
        <time>2018-04-14T10:33:46Z</time>
      </trkpt>
      <trkpt lat="48.64324" lon="2.09758">
        <ele>133</ele>
        <time>2018-04-14T10:33:48Z</time>
      </trkpt>
      <trkpt lat="48.64319" lon="2.09779">
        <ele>132</ele>
        <time>2018-04-14T10:33:50Z</time>
      </trkpt>
      <trkpt lat="48.64313" lon="2.09799">
        <ele>131</ele>
        <time>2018-04-14T10:33:52Z</time>
      </trkpt>
      <trkpt lat="48.64306" lon="2.09822">
        <ele>132</ele>
        <time>2018-04-14T10:33:54Z</time>
      </trkpt>
      <trkpt lat="48.64301" lon="2.09844">
        <ele>132</ele>
        <time>2018-04-14T10:33:56Z</time>
      </trkpt>
      <trkpt lat="48.64298" lon="2.09867">
        <ele>132</ele>
        <time>2018-04-14T10:33:58Z</time>
      </trkpt>
      <trkpt lat="48.64293" lon="2.0989">
        <ele>132</ele>
        <time>2018-04-14T10:34:00Z</time>
      </trkpt>
      <trkpt lat="48.64291" lon="2.09908">
        <ele>132</ele>
        <time>2018-04-14T10:34:02Z</time>
      </trkpt>
      <trkpt lat="48.6429" lon="2.09921">
        <ele>133</ele>
        <time>2018-04-14T10:34:04Z</time>
      </trkpt>
      <trkpt lat="48.64288" lon="2.09931">
        <ele>133</ele>
        <time>2018-04-14T10:34:06Z</time>
      </trkpt>
      <trkpt lat="48.64285" lon="2.09935">
        <ele>133</ele>
        <time>2018-04-14T10:34:08Z</time>
      </trkpt>
      <trkpt lat="48.64282" lon="2.09942">
        <ele>133</ele>
        <time>2018-04-14T10:34:10Z</time>
      </trkpt>
      <trkpt lat="48.64279" lon="2.09951">
        <ele>133</ele>
        <time>2018-04-14T10:34:12Z</time>
      </trkpt>
      <trkpt lat="48.64277" lon="2.09961">
        <ele>133</ele>
        <time>2018-04-14T10:34:16Z</time>
      </trkpt>
      <trkpt lat="48.64269" lon="2.09974">
        <ele>132</ele>
        <time>2018-04-14T10:34:20Z</time>
      </trkpt>
      <trkpt lat="48.64262" lon="2.09982">
        <ele>132</ele>
        <time>2018-04-14T10:34:22Z</time>
      </trkpt>
      <trkpt lat="48.64252" lon="2.09986">
        <ele>131</ele>
        <time>2018-04-14T10:34:24Z</time>
      </trkpt>
      <trkpt lat="48.64243" lon="2.09989">
        <ele>128</ele>
        <time>2018-04-14T10:34:26Z</time>
      </trkpt>
      <trkpt lat="48.64235" lon="2.09991">
        <ele>128</ele>
        <time>2018-04-14T10:34:28Z</time>
      </trkpt>
      <trkpt lat="48.64227" lon="2.09995">
        <ele>127</ele>
        <time>2018-04-14T10:34:30Z</time>
      </trkpt>
      <trkpt lat="48.6422" lon="2.09998">
        <ele>126</ele>
        <time>2018-04-14T10:34:32Z</time>
      </trkpt>
      <trkpt lat="48.6421" lon="2.10003">
        <ele>127</ele>
        <time>2018-04-14T10:34:36Z</time>
      </trkpt>
      <trkpt lat="48.64203" lon="2.10007">
        <ele>126</ele>
        <time>2018-04-14T10:34:40Z</time>
      </trkpt>
      <trkpt lat="48.64199" lon="2.10012">
        <ele>126</ele>
        <time>2018-04-14T10:34:46Z</time>
      </trkpt>
      <trkpt lat="48.64194" lon="2.10013">
        <ele>126</ele>
        <time>2018-04-14T10:34:50Z</time>
      </trkpt>
      <trkpt lat="48.64187" lon="2.10012">
        <ele>125</ele>
        <time>2018-04-14T10:34:54Z</time>
      </trkpt>
      <trkpt lat="48.64182" lon="2.10012">
        <ele>125</ele>
        <time>2018-04-14T10:35:02Z</time>
      </trkpt>
      <trkpt lat="48.64177" lon="2.10017">
        <ele>125</ele>
        <time>2018-04-14T10:35:08Z</time>
      </trkpt>
      <trkpt lat="48.64174" lon="2.10023">
        <ele>125</ele>
        <time>2018-04-14T10:35:22Z</time>
      </trkpt>
      <trkpt lat="48.64169" lon="2.10026">
        <ele>125</ele>
        <time>2018-04-14T10:35:26Z</time>
      </trkpt>
      <trkpt lat="48.64164" lon="2.10029">
        <ele>121</ele>
        <time>2018-04-14T10:35:32Z</time>
      </trkpt>
      <trkpt lat="48.64161" lon="2.10036">
        <ele>121</ele>
        <time>2018-04-14T10:35:44Z</time>
      </trkpt>
      <trkpt lat="48.64159" lon="2.10043">
        <ele>121</ele>
        <time>2018-04-14T10:35:48Z</time>
      </trkpt>
      <trkpt lat="48.64159" lon="2.10051">
        <ele>122</ele>
        <time>2018-04-14T10:35:54Z</time>
      </trkpt>
      <trkpt lat="48.64155" lon="2.10057">
        <ele>122</ele>
        <time>2018-04-14T10:36:00Z</time>
      </trkpt>
      <trkpt lat="48.6415" lon="2.10057">
        <ele>122</ele>
        <time>2018-04-14T10:36:10Z</time>
      </trkpt>
      <trkpt lat="48.64145" lon="2.10054">
        <ele>121</ele>
        <time>2018-04-14T10:36:14Z</time>
      </trkpt>
      <trkpt lat="48.64138" lon="2.10052">
        <ele>121</ele>
        <time>2018-04-14T10:36:50Z</time>
      </trkpt>
      <trkpt lat="48.64134" lon="2.10049">
        <ele>121</ele>
        <time>2018-04-14T10:36:52Z</time>
      </trkpt>
      <trkpt lat="48.64129" lon="2.10047">
        <ele>121</ele>
        <time>2018-04-14T10:36:54Z</time>
      </trkpt>
      <trkpt lat="48.64125" lon="2.1004">
        <ele>120</ele>
        <time>2018-04-14T10:36:56Z</time>
      </trkpt>
      <trkpt lat="48.64121" lon="2.10034">
        <ele>120</ele>
        <time>2018-04-14T10:36:58Z</time>
      </trkpt>
      <trkpt lat="48.64117" lon="2.10025">
        <ele>120</ele>
        <time>2018-04-14T10:37:02Z</time>
      </trkpt>
      <trkpt lat="48.64114" lon="2.1002">
        <ele>120</ele>
        <time>2018-04-14T10:37:04Z</time>
      </trkpt>
      <trkpt lat="48.64109" lon="2.10014">
        <ele>119</ele>
        <time>2018-04-14T10:37:06Z</time>
      </trkpt>
      <trkpt lat="48.64105" lon="2.10008">
        <ele>119</ele>
        <time>2018-04-14T10:37:08Z</time>
      </trkpt>
      <trkpt lat="48.64101" lon="2.1">
        <ele>119</ele>
        <time>2018-04-14T10:37:10Z</time>
      </trkpt>
      <trkpt lat="48.64097" lon="2.09994">
        <ele>118</ele>
        <time>2018-04-14T10:37:12Z</time>
      </trkpt>
      <trkpt lat="48.64091" lon="2.09988">
        <ele>118</ele>
        <time>2018-04-14T10:37:14Z</time>
      </trkpt>
      <trkpt lat="48.64085" lon="2.09984">
        <ele>118</ele>
        <time>2018-04-14T10:37:16Z</time>
      </trkpt>
      <trkpt lat="48.64079" lon="2.09982">
        <ele>118</ele>
        <time>2018-04-14T10:37:18Z</time>
      </trkpt>
      <trkpt lat="48.64073" lon="2.0998">
        <ele>118</ele>
        <time>2018-04-14T10:37:20Z</time>
      </trkpt>
      <trkpt lat="48.64068" lon="2.09978">
        <ele>118</ele>
        <time>2018-04-14T10:37:22Z</time>
      </trkpt>
      <trkpt lat="48.64063" lon="2.09976">
        <ele>118</ele>
        <time>2018-04-14T10:37:24Z</time>
      </trkpt>
      <trkpt lat="48.64058" lon="2.09974">
        <ele>118</ele>
        <time>2018-04-14T10:37:26Z</time>
      </trkpt>
      <trkpt lat="48.64051" lon="2.09976">
        <ele>118</ele>
        <time>2018-04-14T10:37:30Z</time>
      </trkpt>
      <trkpt lat="48.64046" lon="2.09979">
        <ele>118</ele>
        <time>2018-04-14T10:37:34Z</time>
      </trkpt>
      <trkpt lat="48.64038" lon="2.09979">
        <ele>119</ele>
        <time>2018-04-14T10:37:38Z</time>
      </trkpt>
      <trkpt lat="48.64032" lon="2.09975">
        <ele>119</ele>
        <time>2018-04-14T10:37:40Z</time>
      </trkpt>
      <trkpt lat="48.64027" lon="2.09972">
        <ele>119</ele>
        <time>2018-04-14T10:37:42Z</time>
      </trkpt>
      <trkpt lat="48.64022" lon="2.09971">
        <ele>119</ele>
        <time>2018-04-14T10:37:44Z</time>
      </trkpt>
      <trkpt lat="48.64017" lon="2.09972">
        <ele>119</ele>
        <time>2018-04-14T10:37:46Z</time>
      </trkpt>
      <trkpt lat="48.64014" lon="2.09984">
        <ele>119</ele>
        <time>2018-04-14T10:37:50Z</time>
      </trkpt>
      <trkpt lat="48.6401" lon="2.09987">
        <ele>119</ele>
        <time>2018-04-14T10:37:52Z</time>
      </trkpt>
      <trkpt lat="48.64004" lon="2.09987">
        <ele>119</ele>
        <time>2018-04-14T10:37:54Z</time>
      </trkpt>
      <trkpt lat="48.63998" lon="2.09985">
        <ele>120</ele>
        <time>2018-04-14T10:37:56Z</time>
      </trkpt>
      <trkpt lat="48.63992" lon="2.09984">
        <ele>120</ele>
        <time>2018-04-14T10:37:58Z</time>
      </trkpt>
      <trkpt lat="48.63986" lon="2.09983">
        <ele>120</ele>
        <time>2018-04-14T10:38:00Z</time>
      </trkpt>
      <trkpt lat="48.6398" lon="2.09982">
        <ele>120</ele>
        <time>2018-04-14T10:38:02Z</time>
      </trkpt>
      <trkpt lat="48.63974" lon="2.09981">
        <ele>120</ele>
        <time>2018-04-14T10:38:04Z</time>
      </trkpt>
      <trkpt lat="48.63968" lon="2.09979">
        <ele>120</ele>
        <time>2018-04-14T10:38:06Z</time>
      </trkpt>
      <trkpt lat="48.63963" lon="2.09979">
        <ele>121</ele>
        <time>2018-04-14T10:38:08Z</time>
      </trkpt>
      <trkpt lat="48.63957" lon="2.09978">
        <ele>121</ele>
        <time>2018-04-14T10:38:10Z</time>
      </trkpt>
      <trkpt lat="48.6395" lon="2.09978">
        <ele>121</ele>
        <time>2018-04-14T10:38:12Z</time>
      </trkpt>
      <trkpt lat="48.63944" lon="2.09977">
        <ele>121</ele>
        <time>2018-04-14T10:38:14Z</time>
      </trkpt>
      <trkpt lat="48.63938" lon="2.09975">
        <ele>121</ele>
        <time>2018-04-14T10:38:16Z</time>
      </trkpt>
      <trkpt lat="48.63932" lon="2.09974">
        <ele>121</ele>
        <time>2018-04-14T10:38:18Z</time>
      </trkpt>
      <trkpt lat="48.63927" lon="2.09973">
        <ele>121</ele>
        <time>2018-04-14T10:38:20Z</time>
      </trkpt>
      <trkpt lat="48.63922" lon="2.09973">
        <ele>121</ele>
        <time>2018-04-14T10:38:22Z</time>
      </trkpt>
      <trkpt lat="48.63916" lon="2.09972">
        <ele>123</ele>
        <time>2018-04-14T10:38:24Z</time>
      </trkpt>
      <trkpt lat="48.6391" lon="2.09972">
        <ele>123</ele>
        <time>2018-04-14T10:38:26Z</time>
      </trkpt>
      <trkpt lat="48.63904" lon="2.09971">
        <ele>123</ele>
        <time>2018-04-14T10:38:28Z</time>
      </trkpt>
      <trkpt lat="48.63898" lon="2.0997">
        <ele>123</ele>
        <time>2018-04-14T10:38:30Z</time>
      </trkpt>
      <trkpt lat="48.63893" lon="2.09969">
        <ele>123</ele>
        <time>2018-04-14T10:38:32Z</time>
      </trkpt>
      <trkpt lat="48.63888" lon="2.09969">
        <ele>123</ele>
        <time>2018-04-14T10:38:34Z</time>
      </trkpt>
      <trkpt lat="48.63884" lon="2.09968">
        <ele>124</ele>
        <time>2018-04-14T10:38:36Z</time>
      </trkpt>
      <trkpt lat="48.63879" lon="2.09967">
        <ele>124</ele>
        <time>2018-04-14T10:38:38Z</time>
      </trkpt>
      <trkpt lat="48.63874" lon="2.09967">
        <ele>124</ele>
        <time>2018-04-14T10:38:40Z</time>
      </trkpt>
      <trkpt lat="48.63869" lon="2.09966">
        <ele>124</ele>
        <time>2018-04-14T10:38:42Z</time>
      </trkpt>
      <trkpt lat="48.63864" lon="2.09966">
        <ele>124</ele>
        <time>2018-04-14T10:38:44Z</time>
      </trkpt>
      <trkpt lat="48.63859" lon="2.09965">
        <ele>124</ele>
        <time>2018-04-14T10:38:46Z</time>
      </trkpt>
      <trkpt lat="48.63853" lon="2.09964">
        <ele>124</ele>
        <time>2018-04-14T10:38:48Z</time>
      </trkpt>
      <trkpt lat="48.63848" lon="2.09963">
        <ele>124</ele>
        <time>2018-04-14T10:38:50Z</time>
      </trkpt>
      <trkpt lat="48.63843" lon="2.09963">
        <ele>125</ele>
        <time>2018-04-14T10:38:52Z</time>
      </trkpt>
      <trkpt lat="48.63837" lon="2.09964">
        <ele>125</ele>
        <time>2018-04-14T10:38:54Z</time>
      </trkpt>
      <trkpt lat="48.63832" lon="2.09964">
        <ele>128</ele>
        <time>2018-04-14T10:38:56Z</time>
      </trkpt>
      <trkpt lat="48.63827" lon="2.09965">
        <ele>128</ele>
        <time>2018-04-14T10:38:58Z</time>
      </trkpt>
      <trkpt lat="48.63821" lon="2.09965">
        <ele>128</ele>
        <time>2018-04-14T10:39:00Z</time>
      </trkpt>
      <trkpt lat="48.63816" lon="2.09965">
        <ele>128</ele>
        <time>2018-04-14T10:39:02Z</time>
      </trkpt>
      <trkpt lat="48.63809" lon="2.09966">
        <ele>128</ele>
        <time>2018-04-14T10:39:04Z</time>
      </trkpt>
      <trkpt lat="48.63803" lon="2.09967">
        <ele>128</ele>
        <time>2018-04-14T10:39:06Z</time>
      </trkpt>
      <trkpt lat="48.63798" lon="2.09968">
        <ele>129</ele>
        <time>2018-04-14T10:39:08Z</time>
      </trkpt>
      <trkpt lat="48.63792" lon="2.09969">
        <ele>129</ele>
        <time>2018-04-14T10:39:10Z</time>
      </trkpt>
      <trkpt lat="48.63786" lon="2.0997">
        <ele>129</ele>
        <time>2018-04-14T10:39:12Z</time>
      </trkpt>
      <trkpt lat="48.6378" lon="2.09971">
        <ele>129</ele>
        <time>2018-04-14T10:39:14Z</time>
      </trkpt>
      <trkpt lat="48.63774" lon="2.09972">
        <ele>129</ele>
        <time>2018-04-14T10:39:16Z</time>
      </trkpt>
      <trkpt lat="48.63768" lon="2.09974">
        <ele>129</ele>
        <time>2018-04-14T10:39:18Z</time>
      </trkpt>
      <trkpt lat="48.63762" lon="2.09974">
        <ele>130</ele>
        <time>2018-04-14T10:39:20Z</time>
      </trkpt>
      <trkpt lat="48.63755" lon="2.09975">
        <ele>130</ele>
        <time>2018-04-14T10:39:22Z</time>
      </trkpt>
      <trkpt lat="48.63749" lon="2.09976">
        <ele>133</ele>
        <time>2018-04-14T10:39:24Z</time>
      </trkpt>
      <trkpt lat="48.63742" lon="2.09976">
        <ele>133</ele>
        <time>2018-04-14T10:39:26Z</time>
      </trkpt>
      <trkpt lat="48.63737" lon="2.09977">
        <ele>133</ele>
        <time>2018-04-14T10:39:28Z</time>
      </trkpt>
      <trkpt lat="48.63731" lon="2.09978">
        <ele>133</ele>
        <time>2018-04-14T10:39:30Z</time>
      </trkpt>
      <trkpt lat="48.63725" lon="2.09979">
        <ele>134</ele>
        <time>2018-04-14T10:39:32Z</time>
      </trkpt>
      <trkpt lat="48.6372" lon="2.09981">
        <ele>134</ele>
        <time>2018-04-14T10:39:34Z</time>
      </trkpt>
      <trkpt lat="48.63714" lon="2.09982">
        <ele>134</ele>
        <time>2018-04-14T10:39:36Z</time>
      </trkpt>
      <trkpt lat="48.63709" lon="2.09982">
        <ele>134</ele>
        <time>2018-04-14T10:39:38Z</time>
      </trkpt>
      <trkpt lat="48.63704" lon="2.09983">
        <ele>135</ele>
        <time>2018-04-14T10:39:40Z</time>
      </trkpt>
      <trkpt lat="48.63699" lon="2.09983">
        <ele>135</ele>
        <time>2018-04-14T10:39:42Z</time>
      </trkpt>
      <trkpt lat="48.63693" lon="2.09984">
        <ele>135</ele>
        <time>2018-04-14T10:39:44Z</time>
      </trkpt>
      <trkpt lat="48.63688" lon="2.09985">
        <ele>135</ele>
        <time>2018-04-14T10:39:46Z</time>
      </trkpt>
      <trkpt lat="48.63682" lon="2.09987">
        <ele>136</ele>
        <time>2018-04-14T10:39:48Z</time>
      </trkpt>
      <trkpt lat="48.63677" lon="2.09988">
        <ele>136</ele>
        <time>2018-04-14T10:39:50Z</time>
      </trkpt>
      <trkpt lat="48.63672" lon="2.09988">
        <ele>136</ele>
        <time>2018-04-14T10:39:52Z</time>
      </trkpt>
      <trkpt lat="48.63667" lon="2.09988">
        <ele>136</ele>
        <time>2018-04-14T10:39:54Z</time>
      </trkpt>
      <trkpt lat="48.63662" lon="2.09989">
        <ele>138</ele>
        <time>2018-04-14T10:39:56Z</time>
      </trkpt>
      <trkpt lat="48.63657" lon="2.0999">
        <ele>138</ele>
        <time>2018-04-14T10:39:58Z</time>
      </trkpt>
      <trkpt lat="48.63653" lon="2.0999">
        <ele>139</ele>
        <time>2018-04-14T10:40:00Z</time>
      </trkpt>
      <trkpt lat="48.63648" lon="2.0999">
        <ele>139</ele>
        <time>2018-04-14T10:40:02Z</time>
      </trkpt>
      <trkpt lat="48.63643" lon="2.09991">
        <ele>139</ele>
        <time>2018-04-14T10:40:04Z</time>
      </trkpt>
      <trkpt lat="48.63638" lon="2.09991">
        <ele>139</ele>
        <time>2018-04-14T10:40:06Z</time>
      </trkpt>
      <trkpt lat="48.63633" lon="2.09991">
        <ele>140</ele>
        <time>2018-04-14T10:40:08Z</time>
      </trkpt>
      <trkpt lat="48.63629" lon="2.09992">
        <ele>140</ele>
        <time>2018-04-14T10:40:10Z</time>
      </trkpt>
      <trkpt lat="48.63624" lon="2.09992">
        <ele>140</ele>
        <time>2018-04-14T10:40:12Z</time>
      </trkpt>
      <trkpt lat="48.63618" lon="2.09993">
        <ele>140</ele>
        <time>2018-04-14T10:40:14Z</time>
      </trkpt>
      <trkpt lat="48.63613" lon="2.09993">
        <ele>141</ele>
        <time>2018-04-14T10:40:16Z</time>
      </trkpt>
      <trkpt lat="48.63608" lon="2.09993">
        <ele>141</ele>
        <time>2018-04-14T10:40:18Z</time>
      </trkpt>
      <trkpt lat="48.63602" lon="2.09993">
        <ele>141</ele>
        <time>2018-04-14T10:40:20Z</time>
      </trkpt>
      <trkpt lat="48.63597" lon="2.09992">
        <ele>141</ele>
        <time>2018-04-14T10:40:22Z</time>
      </trkpt>
      <trkpt lat="48.63592" lon="2.09992">
        <ele>141</ele>
        <time>2018-04-14T10:40:24Z</time>
      </trkpt>
      <trkpt lat="48.63587" lon="2.09991">
        <ele>141</ele>
        <time>2018-04-14T10:40:26Z</time>
      </trkpt>
      <trkpt lat="48.63582" lon="2.09991">
        <ele>143</ele>
        <time>2018-04-14T10:40:28Z</time>
      </trkpt>
      <trkpt lat="48.63576" lon="2.09991">
        <ele>143</ele>
        <time>2018-04-14T10:40:30Z</time>
      </trkpt>
      <trkpt lat="48.6357" lon="2.09991">
        <ele>144</ele>
        <time>2018-04-14T10:40:32Z</time>
      </trkpt>
      <trkpt lat="48.63564" lon="2.09991">
        <ele>144</ele>
        <time>2018-04-14T10:40:34Z</time>
      </trkpt>
      <trkpt lat="48.63559" lon="2.09991">
        <ele>145</ele>
        <time>2018-04-14T10:40:36Z</time>
      </trkpt>
      <trkpt lat="48.63553" lon="2.09991">
        <ele>145</ele>
        <time>2018-04-14T10:40:38Z</time>
      </trkpt>
      <trkpt lat="48.63547" lon="2.09992">
        <ele>145</ele>
        <time>2018-04-14T10:40:40Z</time>
      </trkpt>
      <trkpt lat="48.63541" lon="2.09993">
        <ele>146</ele>
        <time>2018-04-14T10:40:42Z</time>
      </trkpt>
      <trkpt lat="48.63535" lon="2.09993">
        <ele>146</ele>
        <time>2018-04-14T10:40:44Z</time>
      </trkpt>
      <trkpt lat="48.6353" lon="2.09994">
        <ele>146</ele>
        <time>2018-04-14T10:40:46Z</time>
      </trkpt>
      <trkpt lat="48.63524" lon="2.09995">
        <ele>146</ele>
        <time>2018-04-14T10:40:48Z</time>
      </trkpt>
      <trkpt lat="48.63518" lon="2.09995">
        <ele>147</ele>
        <time>2018-04-14T10:40:50Z</time>
      </trkpt>
      <trkpt lat="48.63512" lon="2.09994">
        <ele>147</ele>
        <time>2018-04-14T10:40:52Z</time>
      </trkpt>
      <trkpt lat="48.63507" lon="2.09993">
        <ele>147</ele>
        <time>2018-04-14T10:40:54Z</time>
      </trkpt>
      <trkpt lat="48.63502" lon="2.09996">
        <ele>148</ele>
        <time>2018-04-14T10:40:56Z</time>
      </trkpt>
      <trkpt lat="48.63497" lon="2.09998">
        <ele>148</ele>
        <time>2018-04-14T10:40:58Z</time>
      </trkpt>
      <trkpt lat="48.63492" lon="2.1">
        <ele>148</ele>
        <time>2018-04-14T10:41:00Z</time>
      </trkpt>
      <trkpt lat="48.63484" lon="2.10005">
        <ele>147</ele>
        <time>2018-04-14T10:41:04Z</time>
      </trkpt>
      <trkpt lat="48.63482" lon="2.10011">
        <ele>147</ele>
        <time>2018-04-14T10:41:06Z</time>
      </trkpt>
      <trkpt lat="48.63479" lon="2.1002">
        <ele>147</ele>
        <time>2018-04-14T10:41:08Z</time>
      </trkpt>
      <trkpt lat="48.63476" lon="2.1003">
        <ele>147</ele>
        <time>2018-04-14T10:41:10Z</time>
      </trkpt>
      <trkpt lat="48.63473" lon="2.10042">
        <ele>146</ele>
        <time>2018-04-14T10:41:12Z</time>
      </trkpt>
      <trkpt lat="48.63469" lon="2.10054">
        <ele>146</ele>
        <time>2018-04-14T10:41:14Z</time>
      </trkpt>
      <trkpt lat="48.63466" lon="2.10066">
        <ele>146</ele>
        <time>2018-04-14T10:41:16Z</time>
      </trkpt>
      <trkpt lat="48.63462" lon="2.10079">
        <ele>146</ele>
        <time>2018-04-14T10:41:18Z</time>
      </trkpt>
      <trkpt lat="48.63458" lon="2.10093">
        <ele>143</ele>
        <time>2018-04-14T10:41:20Z</time>
      </trkpt>
      <trkpt lat="48.63454" lon="2.10109">
        <ele>143</ele>
        <time>2018-04-14T10:41:22Z</time>
      </trkpt>
      <trkpt lat="48.63449" lon="2.10124">
        <ele>143</ele>
        <time>2018-04-14T10:41:24Z</time>
      </trkpt>
      <trkpt lat="48.63445" lon="2.1014">
        <ele>142</ele>
        <time>2018-04-14T10:41:26Z</time>
      </trkpt>
      <trkpt lat="48.63441" lon="2.10159">
        <ele>142</ele>
        <time>2018-04-14T10:41:28Z</time>
      </trkpt>
      <trkpt lat="48.63437" lon="2.10178">
        <ele>140</ele>
        <time>2018-04-14T10:41:30Z</time>
      </trkpt>
      <trkpt lat="48.63433" lon="2.10199">
        <ele>139</ele>
        <time>2018-04-14T10:41:32Z</time>
      </trkpt>
      <trkpt lat="48.63429" lon="2.10222">
        <ele>139</ele>
        <time>2018-04-14T10:41:34Z</time>
      </trkpt>
      <trkpt lat="48.63423" lon="2.10243">
        <ele>139</ele>
        <time>2018-04-14T10:41:36Z</time>
      </trkpt>
      <trkpt lat="48.63416" lon="2.10265">
        <ele>139</ele>
        <time>2018-04-14T10:41:38Z</time>
      </trkpt>
      <trkpt lat="48.63407" lon="2.10287">
        <ele>138</ele>
        <time>2018-04-14T10:41:40Z</time>
      </trkpt>
      <trkpt lat="48.63402" lon="2.10304">
        <ele>138</ele>
        <time>2018-04-14T10:41:42Z</time>
      </trkpt>
      <trkpt lat="48.63395" lon="2.10322">
        <ele>137</ele>
        <time>2018-04-14T10:41:44Z</time>
      </trkpt>
      <trkpt lat="48.63389" lon="2.10339">
        <ele>135</ele>
        <time>2018-04-14T10:41:46Z</time>
      </trkpt>
      <trkpt lat="48.63384" lon="2.10354">
        <ele>134</ele>
        <time>2018-04-14T10:41:48Z</time>
      </trkpt>
      <trkpt lat="48.6338" lon="2.10369">
        <ele>134</ele>
        <time>2018-04-14T10:41:50Z</time>
      </trkpt>
      <trkpt lat="48.63376" lon="2.10384">
        <ele>133</ele>
        <time>2018-04-14T10:41:52Z</time>
      </trkpt>
      <trkpt lat="48.63373" lon="2.10398">
        <ele>133</ele>
        <time>2018-04-14T10:41:54Z</time>
      </trkpt>
      <trkpt lat="48.6337" lon="2.10412">
        <ele>132</ele>
        <time>2018-04-14T10:41:56Z</time>
      </trkpt>
      <trkpt lat="48.63365" lon="2.10425">
        <ele>130</ele>
        <time>2018-04-14T10:41:58Z</time>
      </trkpt>
      <trkpt lat="48.63363" lon="2.10436">
        <ele>129</ele>
        <time>2018-04-14T10:42:00Z</time>
      </trkpt>
      <trkpt lat="48.63361" lon="2.10443">
        <ele>129</ele>
        <time>2018-04-14T10:42:02Z</time>
      </trkpt>
      <trkpt lat="48.63359" lon="2.10452">
        <ele>129</ele>
        <time>2018-04-14T10:42:04Z</time>
      </trkpt>
      <trkpt lat="48.63357" lon="2.1046">
        <ele>129</ele>
        <time>2018-04-14T10:42:06Z</time>
      </trkpt>
      <trkpt lat="48.63355" lon="2.10469">
        <ele>129</ele>
        <time>2018-04-14T10:42:08Z</time>
      </trkpt>
      <trkpt lat="48.63352" lon="2.10481">
        <ele>128</ele>
        <time>2018-04-14T10:42:10Z</time>
      </trkpt>
      <trkpt lat="48.6335" lon="2.10491">
        <ele>128</ele>
        <time>2018-04-14T10:42:12Z</time>
      </trkpt>
      <trkpt lat="48.63348" lon="2.10498">
        <ele>128</ele>
        <time>2018-04-14T10:42:14Z</time>
      </trkpt>
      <trkpt lat="48.63347" lon="2.10505">
        <ele>126</ele>
        <time>2018-04-14T10:42:16Z</time>
      </trkpt>
      <trkpt lat="48.63344" lon="2.10517">
        <ele>126</ele>
        <time>2018-04-14T10:42:20Z</time>
      </trkpt>
      <trkpt lat="48.63343" lon="2.10525">
        <ele>126</ele>
        <time>2018-04-14T10:42:22Z</time>
      </trkpt>
      <trkpt lat="48.63341" lon="2.10535">
        <ele>125</ele>
        <time>2018-04-14T10:42:24Z</time>
      </trkpt>
      <trkpt lat="48.6334" lon="2.10546">
        <ele>125</ele>
        <time>2018-04-14T10:42:26Z</time>
      </trkpt>
      <trkpt lat="48.63339" lon="2.10558">
        <ele>125</ele>
        <time>2018-04-14T10:42:28Z</time>
      </trkpt>
      <trkpt lat="48.63337" lon="2.10571">
        <ele>124</ele>
        <time>2018-04-14T10:42:30Z</time>
      </trkpt>
      <trkpt lat="48.63335" lon="2.10583">
        <ele>123</ele>
        <time>2018-04-14T10:42:32Z</time>
      </trkpt>
      <trkpt lat="48.63334" lon="2.10593">
        <ele>123</ele>
        <time>2018-04-14T10:42:34Z</time>
      </trkpt>
      <trkpt lat="48.63332" lon="2.10605">
        <ele>121</ele>
        <time>2018-04-14T10:42:36Z</time>
      </trkpt>
      <trkpt lat="48.63329" lon="2.10619">
        <ele>120</ele>
        <time>2018-04-14T10:42:38Z</time>
      </trkpt>
      <trkpt lat="48.63326" lon="2.10636">
        <ele>120</ele>
        <time>2018-04-14T10:42:40Z</time>
      </trkpt>
      <trkpt lat="48.63323" lon="2.10653">
        <ele>119</ele>
        <time>2018-04-14T10:42:42Z</time>
      </trkpt>
      <trkpt lat="48.6332" lon="2.1067">
        <ele>118</ele>
        <time>2018-04-14T10:42:44Z</time>
      </trkpt>
      <trkpt lat="48.63318" lon="2.10687">
        <ele>118</ele>
        <time>2018-04-14T10:42:46Z</time>
      </trkpt>
      <trkpt lat="48.63316" lon="2.10705">
        <ele>118</ele>
        <time>2018-04-14T10:42:48Z</time>
      </trkpt>
      <trkpt lat="48.63314" lon="2.10722">
        <ele>117</ele>
        <time>2018-04-14T10:42:50Z</time>
      </trkpt>
      <trkpt lat="48.63313" lon="2.1074">
        <ele>117</ele>
        <time>2018-04-14T10:42:52Z</time>
      </trkpt>
      <trkpt lat="48.63312" lon="2.10756">
        <ele>117</ele>
        <time>2018-04-14T10:42:54Z</time>
      </trkpt>
      <trkpt lat="48.63309" lon="2.10772">
        <ele>116</ele>
        <time>2018-04-14T10:42:56Z</time>
      </trkpt>
      <trkpt lat="48.63307" lon="2.10787">
        <ele>116</ele>
        <time>2018-04-14T10:42:58Z</time>
      </trkpt>
      <trkpt lat="48.63304" lon="2.10802">
        <ele>116</ele>
        <time>2018-04-14T10:43:00Z</time>
      </trkpt>
      <trkpt lat="48.63302" lon="2.10816">
        <ele>116</ele>
        <time>2018-04-14T10:43:02Z</time>
      </trkpt>
      <trkpt lat="48.63301" lon="2.10832">
        <ele>116</ele>
        <time>2018-04-14T10:43:04Z</time>
      </trkpt>
      <trkpt lat="48.63301" lon="2.10848">
        <ele>115</ele>
        <time>2018-04-14T10:43:06Z</time>
      </trkpt>
      <trkpt lat="48.63299" lon="2.10864">
        <ele>115</ele>
        <time>2018-04-14T10:43:08Z</time>
      </trkpt>
      <trkpt lat="48.63297" lon="2.10882">
        <ele>115</ele>
        <time>2018-04-14T10:43:10Z</time>
      </trkpt>
      <trkpt lat="48.63295" lon="2.10899">
        <ele>114</ele>
        <time>2018-04-14T10:43:12Z</time>
      </trkpt>
      <trkpt lat="48.63293" lon="2.10917">
        <ele>114</ele>
        <time>2018-04-14T10:43:14Z</time>
      </trkpt>
      <trkpt lat="48.63291" lon="2.10935">
        <ele>114</ele>
        <time>2018-04-14T10:43:16Z</time>
      </trkpt>
      <trkpt lat="48.63288" lon="2.10954">
        <ele>113</ele>
        <time>2018-04-14T10:43:18Z</time>
      </trkpt>
      <trkpt lat="48.63286" lon="2.10974">
        <ele>113</ele>
        <time>2018-04-14T10:43:20Z</time>
      </trkpt>
      <trkpt lat="48.63285" lon="2.10993">
        <ele>113</ele>
        <time>2018-04-14T10:43:22Z</time>
      </trkpt>
      <trkpt lat="48.63282" lon="2.11012">
        <ele>112</ele>
        <time>2018-04-14T10:43:24Z</time>
      </trkpt>
      <trkpt lat="48.6328" lon="2.11031">
        <ele>112</ele>
        <time>2018-04-14T10:43:26Z</time>
      </trkpt>
      <trkpt lat="48.63277" lon="2.1105">
        <ele>112</ele>
        <time>2018-04-14T10:43:28Z</time>
      </trkpt>
      <trkpt lat="48.63275" lon="2.11069">
        <ele>112</ele>
        <time>2018-04-14T10:43:30Z</time>
      </trkpt>
      <trkpt lat="48.63275" lon="2.11087">
        <ele>111</ele>
        <time>2018-04-14T10:43:32Z</time>
      </trkpt>
      <trkpt lat="48.63274" lon="2.11105">
        <ele>111</ele>
        <time>2018-04-14T10:43:34Z</time>
      </trkpt>
      <trkpt lat="48.63275" lon="2.11122">
        <ele>111</ele>
        <time>2018-04-14T10:43:36Z</time>
      </trkpt>
      <trkpt lat="48.63275" lon="2.11137">
        <ele>110</ele>
        <time>2018-04-14T10:43:38Z</time>
      </trkpt>
      <trkpt lat="48.63275" lon="2.11146">
        <ele>110</ele>
        <time>2018-04-14T10:43:40Z</time>
      </trkpt>
      <trkpt lat="48.63275" lon="2.11156">
        <ele>110</ele>
        <time>2018-04-14T10:43:44Z</time>
      </trkpt>
      <trkpt lat="48.63279" lon="2.11165">
        <ele>110</ele>
        <time>2018-04-14T10:43:56Z</time>
      </trkpt>
      <trkpt lat="48.63281" lon="2.11172">
        <ele>109</ele>
        <time>2018-04-14T10:44:00Z</time>
      </trkpt>
      <trkpt lat="48.63282" lon="2.11181">
        <ele>109</ele>
        <time>2018-04-14T10:44:04Z</time>
      </trkpt>
      <trkpt lat="48.63283" lon="2.11193">
        <ele>109</ele>
        <time>2018-04-14T10:44:08Z</time>
      </trkpt>
      <trkpt lat="48.63285" lon="2.112">
        <ele>109</ele>
        <time>2018-04-14T10:44:10Z</time>
      </trkpt>
      <trkpt lat="48.63286" lon="2.11209">
        <ele>109</ele>
        <time>2018-04-14T10:44:12Z</time>
      </trkpt>
      <trkpt lat="48.63288" lon="2.11218">
        <ele>109</ele>
        <time>2018-04-14T10:44:14Z</time>
      </trkpt>
      <trkpt lat="48.63289" lon="2.11228">
        <ele>109</ele>
        <time>2018-04-14T10:44:16Z</time>
      </trkpt>
      <trkpt lat="48.6329" lon="2.11238">
        <ele>109</ele>
        <time>2018-04-14T10:44:18Z</time>
      </trkpt>
      <trkpt lat="48.63292" lon="2.11248">
        <ele>109</ele>
        <time>2018-04-14T10:44:20Z</time>
      </trkpt>
      <trkpt lat="48.63294" lon="2.11259">
        <ele>108</ele>
        <time>2018-04-14T10:44:22Z</time>
      </trkpt>
      <trkpt lat="48.63295" lon="2.1127">
        <ele>108</ele>
        <time>2018-04-14T10:44:24Z</time>
      </trkpt>
      <trkpt lat="48.63297" lon="2.11281">
        <ele>108</ele>
        <time>2018-04-14T10:44:26Z</time>
      </trkpt>
      <trkpt lat="48.63299" lon="2.11293">
        <ele>107</ele>
        <time>2018-04-14T10:44:28Z</time>
      </trkpt>
      <trkpt lat="48.63301" lon="2.11304">
        <ele>107</ele>
        <time>2018-04-14T10:44:30Z</time>
      </trkpt>
      <trkpt lat="48.63303" lon="2.11316">
        <ele>107</ele>
        <time>2018-04-14T10:44:32Z</time>
      </trkpt>
      <trkpt lat="48.63305" lon="2.11327">
        <ele>107</ele>
        <time>2018-04-14T10:44:34Z</time>
      </trkpt>
      <trkpt lat="48.63308" lon="2.11338">
        <ele>106</ele>
        <time>2018-04-14T10:44:36Z</time>
      </trkpt>
      <trkpt lat="48.63311" lon="2.11348">
        <ele>106</ele>
        <time>2018-04-14T10:44:38Z</time>
      </trkpt>
      <trkpt lat="48.63315" lon="2.11358">
        <ele>106</ele>
        <time>2018-04-14T10:44:40Z</time>
      </trkpt>
      <trkpt lat="48.63319" lon="2.11368">
        <ele>106</ele>
        <time>2018-04-14T10:44:42Z</time>
      </trkpt>
      <trkpt lat="48.63325" lon="2.11378">
        <ele>106</ele>
        <time>2018-04-14T10:44:44Z</time>
      </trkpt>
      <trkpt lat="48.63332" lon="2.11387">
        <ele>106</ele>
        <time>2018-04-14T10:44:46Z</time>
      </trkpt>
      <trkpt lat="48.63337" lon="2.11395">
        <ele>106</ele>
        <time>2018-04-14T10:44:48Z</time>
      </trkpt>
      <trkpt lat="48.63342" lon="2.11401">
        <ele>106</ele>
        <time>2018-04-14T10:44:50Z</time>
      </trkpt>
      <trkpt lat="48.63348" lon="2.11406">
        <ele>106</ele>
        <time>2018-04-14T10:44:52Z</time>
      </trkpt>
      <trkpt lat="48.63356" lon="2.11411">
        <ele>106</ele>
        <time>2018-04-14T10:44:54Z</time>
      </trkpt>
      <trkpt lat="48.63364" lon="2.11416">
        <ele>106</ele>
        <time>2018-04-14T10:44:56Z</time>
      </trkpt>
      <trkpt lat="48.63372" lon="2.1142">
        <ele>105</ele>
        <time>2018-04-14T10:44:58Z</time>
      </trkpt>
      <trkpt lat="48.63379" lon="2.11425">
        <ele>105</ele>
        <time>2018-04-14T10:45:00Z</time>
      </trkpt>
      <trkpt lat="48.63386" lon="2.11429">
        <ele>105</ele>
        <time>2018-04-14T10:45:02Z</time>
      </trkpt>
      <trkpt lat="48.63392" lon="2.11433">
        <ele>105</ele>
        <time>2018-04-14T10:45:04Z</time>
      </trkpt>
      <trkpt lat="48.63399" lon="2.11436">
        <ele>105</ele>
        <time>2018-04-14T10:45:06Z</time>
      </trkpt>
      <trkpt lat="48.63406" lon="2.1144">
        <ele>105</ele>
        <time>2018-04-14T10:45:08Z</time>
      </trkpt>
      <trkpt lat="48.63414" lon="2.11444">
        <ele>105</ele>
        <time>2018-04-14T10:45:10Z</time>
      </trkpt>
      <trkpt lat="48.63422" lon="2.11447">
        <ele>105</ele>
        <time>2018-04-14T10:45:12Z</time>
      </trkpt>
      <trkpt lat="48.6343" lon="2.11451">
        <ele>105</ele>
        <time>2018-04-14T10:45:14Z</time>
      </trkpt>
      <trkpt lat="48.63437" lon="2.11454">
        <ele>105</ele>
        <time>2018-04-14T10:45:16Z</time>
      </trkpt>
      <trkpt lat="48.63444" lon="2.11458">
        <ele>105</ele>
        <time>2018-04-14T10:45:18Z</time>
      </trkpt>
      <trkpt lat="48.63452" lon="2.11462">
        <ele>105</ele>
        <time>2018-04-14T10:45:20Z</time>
      </trkpt>
      <trkpt lat="48.63456" lon="2.1147">
        <ele>105</ele>
        <time>2018-04-14T10:45:22Z</time>
      </trkpt>
      <trkpt lat="48.63459" lon="2.11482">
        <ele>105</ele>
        <time>2018-04-14T10:45:24Z</time>
      </trkpt>
      <trkpt lat="48.63457" lon="2.11494">
        <ele>105</ele>
        <time>2018-04-14T10:45:26Z</time>
      </trkpt>
      <trkpt lat="48.63453" lon="2.11507">
        <ele>105</ele>
        <time>2018-04-14T10:45:28Z</time>
      </trkpt>
      <trkpt lat="48.6345" lon="2.11521">
        <ele>105</ele>
        <time>2018-04-14T10:45:30Z</time>
      </trkpt>
      <trkpt lat="48.63446" lon="2.11535">
        <ele>104</ele>
        <time>2018-04-14T10:45:32Z</time>
      </trkpt>
      <trkpt lat="48.63443" lon="2.11549">
        <ele>104</ele>
        <time>2018-04-14T10:45:34Z</time>
      </trkpt>
      <trkpt lat="48.63439" lon="2.11562">
        <ele>104</ele>
        <time>2018-04-14T10:45:36Z</time>
      </trkpt>
      <trkpt lat="48.63435" lon="2.11576">
        <ele>104</ele>
        <time>2018-04-14T10:45:38Z</time>
      </trkpt>
      <trkpt lat="48.63431" lon="2.11589">
        <ele>104</ele>
        <time>2018-04-14T10:45:40Z</time>
      </trkpt>
      <trkpt lat="48.63428" lon="2.11602">
        <ele>104</ele>
        <time>2018-04-14T10:45:42Z</time>
      </trkpt>
      <trkpt lat="48.63424" lon="2.11613">
        <ele>103</ele>
        <time>2018-04-14T10:45:44Z</time>
      </trkpt>
      <trkpt lat="48.6342" lon="2.11625">
        <ele>103</ele>
        <time>2018-04-14T10:45:46Z</time>
      </trkpt>
      <trkpt lat="48.63417" lon="2.11636">
        <ele>103</ele>
        <time>2018-04-14T10:45:48Z</time>
      </trkpt>
      <trkpt lat="48.63413" lon="2.11648">
        <ele>103</ele>
        <time>2018-04-14T10:45:50Z</time>
      </trkpt>
      <trkpt lat="48.6341" lon="2.1166">
        <ele>103</ele>
        <time>2018-04-14T10:45:52Z</time>
      </trkpt>
      <trkpt lat="48.63408" lon="2.11673">
        <ele>103</ele>
        <time>2018-04-14T10:45:54Z</time>
      </trkpt>
      <trkpt lat="48.63407" lon="2.11688">
        <ele>103</ele>
        <time>2018-04-14T10:45:56Z</time>
      </trkpt>
      <trkpt lat="48.63407" lon="2.11702">
        <ele>103</ele>
        <time>2018-04-14T10:45:58Z</time>
      </trkpt>
      <trkpt lat="48.63406" lon="2.11717">
        <ele>103</ele>
        <time>2018-04-14T10:46:00Z</time>
      </trkpt>
      <trkpt lat="48.63403" lon="2.11731">
        <ele>102</ele>
        <time>2018-04-14T10:46:02Z</time>
      </trkpt>
      <trkpt lat="48.634" lon="2.11745">
        <ele>102</ele>
        <time>2018-04-14T10:46:04Z</time>
      </trkpt>
      <trkpt lat="48.63397" lon="2.11759">
        <ele>103</ele>
        <time>2018-04-14T10:46:06Z</time>
      </trkpt>
      <trkpt lat="48.63395" lon="2.11771">
        <ele>103</ele>
        <time>2018-04-14T10:46:08Z</time>
      </trkpt>
      <trkpt lat="48.63395" lon="2.11781">
        <ele>103</ele>
        <time>2018-04-14T10:46:10Z</time>
      </trkpt>
      <trkpt lat="48.63398" lon="2.11791">
        <ele>103</ele>
        <time>2018-04-14T10:46:12Z</time>
      </trkpt>
      <trkpt lat="48.634" lon="2.11798">
        <ele>103</ele>
        <time>2018-04-14T10:46:14Z</time>
      </trkpt>
      <trkpt lat="48.634" lon="2.11808">
        <ele>104</ele>
        <time>2018-04-14T10:46:18Z</time>
      </trkpt>
      <trkpt lat="48.63401" lon="2.11819">
        <ele>104</ele>
        <time>2018-04-14T10:46:22Z</time>
      </trkpt>
      <trkpt lat="48.63402" lon="2.11827">
        <ele>104</ele>
        <time>2018-04-14T10:46:24Z</time>
      </trkpt>
      <trkpt lat="48.63401" lon="2.11835">
        <ele>106</ele>
        <time>2018-04-14T10:46:26Z</time>
      </trkpt>
      <trkpt lat="48.63398" lon="2.11846">
        <ele>106</ele>
        <time>2018-04-14T10:46:30Z</time>
      </trkpt>
      <trkpt lat="48.63396" lon="2.11853">
        <ele>107</ele>
        <time>2018-04-14T10:46:32Z</time>
      </trkpt>
      <trkpt lat="48.63395" lon="2.11867">
        <ele>107</ele>
        <time>2018-04-14T10:46:36Z</time>
      </trkpt>
      <trkpt lat="48.63395" lon="2.11876">
        <ele>108</ele>
        <time>2018-04-14T10:46:38Z</time>
      </trkpt>
      <trkpt lat="48.63395" lon="2.11889">
        <ele>109</ele>
        <time>2018-04-14T10:46:42Z</time>
      </trkpt>
      <trkpt lat="48.63395" lon="2.11899">
        <ele>109</ele>
        <time>2018-04-14T10:46:46Z</time>
      </trkpt>
      <trkpt lat="48.63394" lon="2.1191">
        <ele>110</ele>
        <time>2018-04-14T10:46:50Z</time>
      </trkpt>
      <trkpt lat="48.63395" lon="2.11924">
        <ele>113</ele>
        <time>2018-04-14T10:46:54Z</time>
      </trkpt>
      <trkpt lat="48.63396" lon="2.11936">
        <ele>114</ele>
        <time>2018-04-14T10:46:58Z</time>
      </trkpt>
      <trkpt lat="48.63393" lon="2.11946">
        <ele>114</ele>
        <time>2018-04-14T10:47:02Z</time>
      </trkpt>
      <trkpt lat="48.63392" lon="2.11954">
        <ele>114</ele>
        <time>2018-04-14T10:47:04Z</time>
      </trkpt>
      <trkpt lat="48.63393" lon="2.11962">
        <ele>114</ele>
        <time>2018-04-14T10:47:06Z</time>
      </trkpt>
      <trkpt lat="48.6339" lon="2.11975">
        <ele>115</ele>
        <time>2018-04-14T10:47:10Z</time>
      </trkpt>
      <trkpt lat="48.63389" lon="2.11983">
        <ele>115</ele>
        <time>2018-04-14T10:47:12Z</time>
      </trkpt>
      <trkpt lat="48.63387" lon="2.11992">
        <ele>115</ele>
        <time>2018-04-14T10:47:14Z</time>
      </trkpt>
      <trkpt lat="48.63384" lon="2.12001">
        <ele>118</ele>
        <time>2018-04-14T10:47:16Z</time>
      </trkpt>
      <trkpt lat="48.63385" lon="2.12012">
        <ele>118</ele>
        <time>2018-04-14T10:47:18Z</time>
      </trkpt>
      <trkpt lat="48.63385" lon="2.12023">
        <ele>118</ele>
        <time>2018-04-14T10:47:20Z</time>
      </trkpt>
      <trkpt lat="48.63384" lon="2.12032">
        <ele>118</ele>
        <time>2018-04-14T10:47:22Z</time>
      </trkpt>
      <trkpt lat="48.63384" lon="2.12041">
        <ele>119</ele>
        <time>2018-04-14T10:47:24Z</time>
      </trkpt>
      <trkpt lat="48.63386" lon="2.12052">
        <ele>119</ele>
        <time>2018-04-14T10:47:26Z</time>
      </trkpt>
      <trkpt lat="48.63386" lon="2.12062">
        <ele>119</ele>
        <time>2018-04-14T10:47:28Z</time>
      </trkpt>
      <trkpt lat="48.63385" lon="2.12072">
        <ele>119</ele>
        <time>2018-04-14T10:47:30Z</time>
      </trkpt>
      <trkpt lat="48.63385" lon="2.12081">
        <ele>119</ele>
        <time>2018-04-14T10:47:32Z</time>
      </trkpt>
      <trkpt lat="48.63383" lon="2.12089">
        <ele>121</ele>
        <time>2018-04-14T10:47:34Z</time>
      </trkpt>
      <trkpt lat="48.63378" lon="2.12099">
        <ele>121</ele>
        <time>2018-04-14T10:47:38Z</time>
      </trkpt>
      <trkpt lat="48.63373" lon="2.12103">
        <ele>121</ele>
        <time>2018-04-14T10:47:40Z</time>
      </trkpt>
      <trkpt lat="48.63367" lon="2.12108">
        <ele>121</ele>
        <time>2018-04-14T10:47:42Z</time>
      </trkpt>
      <trkpt lat="48.63361" lon="2.12113">
        <ele>121</ele>
        <time>2018-04-14T10:47:44Z</time>
      </trkpt>
      <trkpt lat="48.63354" lon="2.12113">
        <ele>121</ele>
        <time>2018-04-14T10:47:46Z</time>
      </trkpt>
      <trkpt lat="48.63346" lon="2.12118">
        <ele>120</ele>
        <time>2018-04-14T10:47:48Z</time>
      </trkpt>
      <trkpt lat="48.63339" lon="2.12121">
        <ele>120</ele>
        <time>2018-04-14T10:47:50Z</time>
      </trkpt>
      <trkpt lat="48.63333" lon="2.12123">
        <ele>115</ele>
        <time>2018-04-14T10:47:52Z</time>
      </trkpt>
      <trkpt lat="48.63328" lon="2.12124">
        <ele>115</ele>
        <time>2018-04-14T10:47:54Z</time>
      </trkpt>
      <trkpt lat="48.63323" lon="2.12126">
        <ele>115</ele>
        <time>2018-04-14T10:47:56Z</time>
      </trkpt>
      <trkpt lat="48.63316" lon="2.12126">
        <ele>115</ele>
        <time>2018-04-14T10:48:00Z</time>
      </trkpt>
      <trkpt lat="48.63314" lon="2.1214">
        <ele>115</ele>
        <time>2018-04-14T10:48:04Z</time>
      </trkpt>
      <trkpt lat="48.63311" lon="2.12149">
        <ele>115</ele>
        <time>2018-04-14T10:48:06Z</time>
      </trkpt>
      <trkpt lat="48.63308" lon="2.12161">
        <ele>116</ele>
        <time>2018-04-14T10:48:08Z</time>
      </trkpt>
      <trkpt lat="48.63306" lon="2.12175">
        <ele>117</ele>
        <time>2018-04-14T10:48:10Z</time>
      </trkpt>
      <trkpt lat="48.63305" lon="2.1219">
        <ele>117</ele>
        <time>2018-04-14T10:48:12Z</time>
      </trkpt>
      <trkpt lat="48.63304" lon="2.12204">
        <ele>117</ele>
        <time>2018-04-14T10:48:14Z</time>
      </trkpt>
      <trkpt lat="48.63302" lon="2.12218">
        <ele>117</ele>
        <time>2018-04-14T10:48:16Z</time>
      </trkpt>
      <trkpt lat="48.633" lon="2.12232">
        <ele>117</ele>
        <time>2018-04-14T10:48:18Z</time>
      </trkpt>
      <trkpt lat="48.63297" lon="2.12245">
        <ele>117</ele>
        <time>2018-04-14T10:48:20Z</time>
      </trkpt>
      <trkpt lat="48.63296" lon="2.12257">
        <ele>119</ele>
        <time>2018-04-14T10:48:22Z</time>
      </trkpt>
      <trkpt lat="48.63292" lon="2.12264">
        <ele>119</ele>
        <time>2018-04-14T10:48:24Z</time>
      </trkpt>
      <trkpt lat="48.63289" lon="2.1227">
        <ele>118</ele>
        <time>2018-04-14T10:48:26Z</time>
      </trkpt>
      <trkpt lat="48.6328" lon="2.12278">
        <ele>118</ele>
        <time>2018-04-14T10:48:28Z</time>
      </trkpt>
      <trkpt lat="48.63271" lon="2.12284">
        <ele>118</ele>
        <time>2018-04-14T10:48:30Z</time>
      </trkpt>
      <trkpt lat="48.63259" lon="2.12286">
        <ele>117</ele>
        <time>2018-04-14T10:48:32Z</time>
      </trkpt>
      <trkpt lat="48.63247" lon="2.12289">
        <ele>113</ele>
        <time>2018-04-14T10:48:34Z</time>
      </trkpt>
      <trkpt lat="48.63237" lon="2.1229">
        <ele>113</ele>
        <time>2018-04-14T10:48:36Z</time>
      </trkpt>
      <trkpt lat="48.63228" lon="2.12292">
        <ele>113</ele>
        <time>2018-04-14T10:48:38Z</time>
      </trkpt>
      <trkpt lat="48.63219" lon="2.12296">
        <ele>113</ele>
        <time>2018-04-14T10:48:40Z</time>
      </trkpt>
      <trkpt lat="48.63212" lon="2.12301">
        <ele>113</ele>
        <time>2018-04-14T10:48:42Z</time>
      </trkpt>
      <trkpt lat="48.63207" lon="2.12307">
        <ele>113</ele>
        <time>2018-04-14T10:48:44Z</time>
      </trkpt>
      <trkpt lat="48.63201" lon="2.12313">
        <ele>113</ele>
        <time>2018-04-14T10:48:46Z</time>
      </trkpt>
      <trkpt lat="48.63195" lon="2.12317">
        <ele>113</ele>
        <time>2018-04-14T10:48:48Z</time>
      </trkpt>
      <trkpt lat="48.6319" lon="2.12327">
        <ele>113</ele>
        <time>2018-04-14T10:48:50Z</time>
      </trkpt>
      <trkpt lat="48.63185" lon="2.12338">
        <ele>116</ele>
        <time>2018-04-14T10:48:52Z</time>
      </trkpt>
      <trkpt lat="48.63181" lon="2.12355">
        <ele>117</ele>
        <time>2018-04-14T10:48:54Z</time>
      </trkpt>
      <trkpt lat="48.63178" lon="2.12373">
        <ele>117</ele>
        <time>2018-04-14T10:48:56Z</time>
      </trkpt>
      <trkpt lat="48.63175" lon="2.12391">
        <ele>118</ele>
        <time>2018-04-14T10:48:58Z</time>
      </trkpt>
      <trkpt lat="48.6317" lon="2.12407">
        <ele>118</ele>
        <time>2018-04-14T10:49:00Z</time>
      </trkpt>
      <trkpt lat="48.63164" lon="2.1242">
        <ele>117</ele>
        <time>2018-04-14T10:49:02Z</time>
      </trkpt>
      <trkpt lat="48.63157" lon="2.1243">
        <ele>118</ele>
        <time>2018-04-14T10:49:04Z</time>
      </trkpt>
      <trkpt lat="48.63149" lon="2.12439">
        <ele>118</ele>
        <time>2018-04-14T10:49:06Z</time>
      </trkpt>
      <trkpt lat="48.63138" lon="2.12445">
        <ele>118</ele>
        <time>2018-04-14T10:49:08Z</time>
      </trkpt>
      <trkpt lat="48.63128" lon="2.12449">
        <ele>118</ele>
        <time>2018-04-14T10:49:10Z</time>
      </trkpt>
      <trkpt lat="48.63118" lon="2.1245">
        <ele>118</ele>
        <time>2018-04-14T10:49:12Z</time>
      </trkpt>
      <trkpt lat="48.63108" lon="2.12449">
        <ele>117</ele>
        <time>2018-04-14T10:49:14Z</time>
      </trkpt>
      <trkpt lat="48.63098" lon="2.12446">
        <ele>117</ele>
        <time>2018-04-14T10:49:16Z</time>
      </trkpt>
      <trkpt lat="48.63089" lon="2.12445">
        <ele>116</ele>
        <time>2018-04-14T10:49:18Z</time>
      </trkpt>
      <trkpt lat="48.63079" lon="2.12442">
        <ele>114</ele>
        <time>2018-04-14T10:49:20Z</time>
      </trkpt>
      <trkpt lat="48.63069" lon="2.12438">
        <ele>114</ele>
        <time>2018-04-14T10:49:22Z</time>
      </trkpt>
      <trkpt lat="48.63061" lon="2.12435">
        <ele>114</ele>
        <time>2018-04-14T10:49:24Z</time>
      </trkpt>
      <trkpt lat="48.63052" lon="2.12432">
        <ele>114</ele>
        <time>2018-04-14T10:49:26Z</time>
      </trkpt>
      <trkpt lat="48.63043" lon="2.1243">
        <ele>114</ele>
        <time>2018-04-14T10:49:28Z</time>
      </trkpt>
      <trkpt lat="48.63034" lon="2.12427">
        <ele>114</ele>
        <time>2018-04-14T10:49:30Z</time>
      </trkpt>
      <trkpt lat="48.63026" lon="2.12424">
        <ele>114</ele>
        <time>2018-04-14T10:49:32Z</time>
      </trkpt>
      <trkpt lat="48.63017" lon="2.12421">
        <ele>114</ele>
        <time>2018-04-14T10:49:34Z</time>
      </trkpt>
      <trkpt lat="48.63008" lon="2.12418">
        <ele>114</ele>
        <time>2018-04-14T10:49:36Z</time>
      </trkpt>
      <trkpt lat="48.62999" lon="2.12415">
        <ele>113</ele>
        <time>2018-04-14T10:49:38Z</time>
      </trkpt>
      <trkpt lat="48.62991" lon="2.1241">
        <ele>112</ele>
        <time>2018-04-14T10:49:40Z</time>
      </trkpt>
      <trkpt lat="48.62981" lon="2.12409">
        <ele>111</ele>
        <time>2018-04-14T10:49:42Z</time>
      </trkpt>
      <trkpt lat="48.62974" lon="2.12411">
        <ele>111</ele>
        <time>2018-04-14T10:49:44Z</time>
      </trkpt>
      <trkpt lat="48.62973" lon="2.12419">
        <ele>112</ele>
        <time>2018-04-14T10:49:46Z</time>
      </trkpt>
      <trkpt lat="48.62976" lon="2.12425">
        <ele>112</ele>
        <time>2018-04-14T10:49:48Z</time>
      </trkpt>
      <trkpt lat="48.6298" lon="2.1243">
        <ele>113</ele>
        <time>2018-04-14T10:49:50Z</time>
      </trkpt>
      <trkpt lat="48.62984" lon="2.12434">
        <ele>113</ele>
        <time>2018-04-14T10:49:52Z</time>
      </trkpt>
      <trkpt lat="48.62988" lon="2.1244">
        <ele>113</ele>
        <time>2018-04-14T10:49:54Z</time>
      </trkpt>
      <trkpt lat="48.62992" lon="2.12447">
        <ele>113</ele>
        <time>2018-04-14T10:49:56Z</time>
      </trkpt>
      <trkpt lat="48.62996" lon="2.12453">
        <ele>113</ele>
        <time>2018-04-14T10:49:58Z</time>
      </trkpt>
      <trkpt lat="48.63" lon="2.12459">
        <ele>113</ele>
        <time>2018-04-14T10:50:00Z</time>
      </trkpt>
      <trkpt lat="48.63003" lon="2.12465">
        <ele>115</ele>
        <time>2018-04-14T10:50:02Z</time>
      </trkpt>
      <trkpt lat="48.63007" lon="2.1247">
        <ele>115</ele>
        <time>2018-04-14T10:50:04Z</time>
      </trkpt>
      <trkpt lat="48.63011" lon="2.12475">
        <ele>115</ele>
        <time>2018-04-14T10:50:06Z</time>
      </trkpt>
      <trkpt lat="48.63015" lon="2.1248">
        <ele>115</ele>
        <time>2018-04-14T10:50:08Z</time>
      </trkpt>
      <trkpt lat="48.63019" lon="2.12487">
        <ele>116</ele>
        <time>2018-04-14T10:50:10Z</time>
      </trkpt>
      <trkpt lat="48.63023" lon="2.12493">
        <ele>116</ele>
        <time>2018-04-14T10:50:12Z</time>
      </trkpt>
      <trkpt lat="48.63027" lon="2.12499">
        <ele>116</ele>
        <time>2018-04-14T10:50:14Z</time>
      </trkpt>
      <trkpt lat="48.6303" lon="2.12505">
        <ele>119</ele>
        <time>2018-04-14T10:50:16Z</time>
      </trkpt>
      <trkpt lat="48.63034" lon="2.12512">
        <ele>119</ele>
        <time>2018-04-14T10:50:18Z</time>
      </trkpt>
      <trkpt lat="48.63036" lon="2.12518">
        <ele>119</ele>
        <time>2018-04-14T10:50:20Z</time>
      </trkpt>
      <trkpt lat="48.6304" lon="2.12524">
        <ele>119</ele>
        <time>2018-04-14T10:50:22Z</time>
      </trkpt>
      <trkpt lat="48.63043" lon="2.1253">
        <ele>120</ele>
        <time>2018-04-14T10:50:24Z</time>
      </trkpt>
      <trkpt lat="48.63046" lon="2.12535">
        <ele>120</ele>
        <time>2018-04-14T10:50:26Z</time>
      </trkpt>
      <trkpt lat="48.6305" lon="2.12541">
        <ele>120</ele>
        <time>2018-04-14T10:50:28Z</time>
      </trkpt>
      <trkpt lat="48.63053" lon="2.12546">
        <ele>120</ele>
        <time>2018-04-14T10:50:30Z</time>
      </trkpt>
      <trkpt lat="48.63058" lon="2.12558">
        <ele>121</ele>
        <time>2018-04-14T10:50:34Z</time>
      </trkpt>
      <trkpt lat="48.63061" lon="2.12564">
        <ele>121</ele>
        <time>2018-04-14T10:50:36Z</time>
      </trkpt>
      <trkpt lat="48.63065" lon="2.1257">
        <ele>122</ele>
        <time>2018-04-14T10:50:38Z</time>
      </trkpt>
      <trkpt lat="48.63069" lon="2.12575">
        <ele>123</ele>
        <time>2018-04-14T10:50:40Z</time>
      </trkpt>
      <trkpt lat="48.63073" lon="2.12581">
        <ele>123</ele>
        <time>2018-04-14T10:50:42Z</time>
      </trkpt>
      <trkpt lat="48.63076" lon="2.12586">
        <ele>125</ele>
        <time>2018-04-14T10:50:44Z</time>
      </trkpt>
      <trkpt lat="48.6308" lon="2.12592">
        <ele>125</ele>
        <time>2018-04-14T10:50:46Z</time>
      </trkpt>
      <trkpt lat="48.63083" lon="2.12596">
        <ele>128</ele>
        <time>2018-04-14T10:50:48Z</time>
      </trkpt>
      <trkpt lat="48.63087" lon="2.12602">
        <ele>129</ele>
        <time>2018-04-14T10:50:50Z</time>
      </trkpt>
      <trkpt lat="48.63092" lon="2.12611">
        <ele>130</ele>
        <time>2018-04-14T10:50:54Z</time>
      </trkpt>
      <trkpt lat="48.63098" lon="2.12618">
        <ele>131</ele>
        <time>2018-04-14T10:50:58Z</time>
      </trkpt>
      <trkpt lat="48.63103" lon="2.12622">
        <ele>131</ele>
        <time>2018-04-14T10:51:02Z</time>
      </trkpt>
      <trkpt lat="48.63106" lon="2.12626">
        <ele>131</ele>
        <time>2018-04-14T10:51:08Z</time>
      </trkpt>
      <trkpt lat="48.63112" lon="2.12631">
        <ele>132</ele>
        <time>2018-04-14T10:51:14Z</time>
      </trkpt>
      <trkpt lat="48.63116" lon="2.1264">
        <ele>132</ele>
        <time>2018-04-14T10:51:18Z</time>
      </trkpt>
      <trkpt lat="48.6312" lon="2.12648">
        <ele>133</ele>
        <time>2018-04-14T10:51:22Z</time>
      </trkpt>
      <trkpt lat="48.63124" lon="2.12657">
        <ele>133</ele>
        <time>2018-04-14T10:51:28Z</time>
      </trkpt>
      <trkpt lat="48.63128" lon="2.12664">
        <ele>133</ele>
        <time>2018-04-14T10:51:32Z</time>
      </trkpt>
      <trkpt lat="48.63131" lon="2.12673">
        <ele>136</ele>
        <time>2018-04-14T10:51:38Z</time>
      </trkpt>
      <trkpt lat="48.63133" lon="2.1268">
        <ele>136</ele>
        <time>2018-04-14T10:51:42Z</time>
      </trkpt>
      <trkpt lat="48.63136" lon="2.12688">
        <ele>136</ele>
        <time>2018-04-14T10:51:46Z</time>
      </trkpt>
      <trkpt lat="48.6314" lon="2.12695">
        <ele>136</ele>
        <time>2018-04-14T10:51:50Z</time>
      </trkpt>
      <trkpt lat="48.63147" lon="2.12702">
        <ele>137</ele>
        <time>2018-04-14T10:51:56Z</time>
      </trkpt>
      <trkpt lat="48.63152" lon="2.12706">
        <ele>137</ele>
        <time>2018-04-14T10:52:00Z</time>
      </trkpt>
      <trkpt lat="48.63157" lon="2.12713">
        <ele>137</ele>
        <time>2018-04-14T10:52:04Z</time>
      </trkpt>
      <trkpt lat="48.63162" lon="2.12723">
        <ele>138</ele>
        <time>2018-04-14T10:52:08Z</time>
      </trkpt>
      <trkpt lat="48.63166" lon="2.12728">
        <ele>138</ele>
        <time>2018-04-14T10:52:12Z</time>
      </trkpt>
      <trkpt lat="48.63169" lon="2.12734">
        <ele>143</ele>
        <time>2018-04-14T10:52:16Z</time>
      </trkpt>
      <trkpt lat="48.63174" lon="2.1274">
        <ele>142</ele>
        <time>2018-04-14T10:52:20Z</time>
      </trkpt>
      <trkpt lat="48.63179" lon="2.12746">
        <ele>143</ele>
        <time>2018-04-14T10:52:24Z</time>
      </trkpt>
      <trkpt lat="48.63185" lon="2.12753">
        <ele>144</ele>
        <time>2018-04-14T10:52:28Z</time>
      </trkpt>
      <trkpt lat="48.6319" lon="2.12758">
        <ele>145</ele>
        <time>2018-04-14T10:52:32Z</time>
      </trkpt>
      <trkpt lat="48.63194" lon="2.12765">
        <ele>145</ele>
        <time>2018-04-14T10:52:36Z</time>
      </trkpt>
      <trkpt lat="48.632" lon="2.12769">
        <ele>146</ele>
        <time>2018-04-14T10:52:40Z</time>
      </trkpt>
      <trkpt lat="48.63206" lon="2.12774">
        <ele>146</ele>
        <time>2018-04-14T10:52:44Z</time>
      </trkpt>
      <trkpt lat="48.63212" lon="2.1278">
        <ele>147</ele>
        <time>2018-04-14T10:52:48Z</time>
      </trkpt>
      <trkpt lat="48.63217" lon="2.12785">
        <ele>147</ele>
        <time>2018-04-14T10:52:52Z</time>
      </trkpt>
      <trkpt lat="48.63222" lon="2.12791">
        <ele>148</ele>
        <time>2018-04-14T10:52:58Z</time>
      </trkpt>
      <trkpt lat="48.63227" lon="2.12797">
        <ele>148</ele>
        <time>2018-04-14T10:53:02Z</time>
      </trkpt>
      <trkpt lat="48.63234" lon="2.12801">
        <ele>148</ele>
        <time>2018-04-14T10:53:08Z</time>
      </trkpt>
      <trkpt lat="48.6324" lon="2.12807">
        <ele>149</ele>
        <time>2018-04-14T10:53:12Z</time>
      </trkpt>
      <trkpt lat="48.63246" lon="2.12813">
        <ele>149</ele>
        <time>2018-04-14T10:53:16Z</time>
      </trkpt>
      <trkpt lat="48.6325" lon="2.12819">
        <ele>150</ele>
        <time>2018-04-14T10:53:20Z</time>
      </trkpt>
      <trkpt lat="48.63254" lon="2.12826">
        <ele>153</ele>
        <time>2018-04-14T10:53:24Z</time>
      </trkpt>
      <trkpt lat="48.63259" lon="2.12833">
        <ele>153</ele>
        <time>2018-04-14T10:53:28Z</time>
      </trkpt>
      <trkpt lat="48.63264" lon="2.1284">
        <ele>153</ele>
        <time>2018-04-14T10:53:32Z</time>
      </trkpt>
      <trkpt lat="48.63269" lon="2.12843">
        <ele>153</ele>
        <time>2018-04-14T10:53:34Z</time>
      </trkpt>
      <trkpt lat="48.63273" lon="2.12848">
        <ele>154</ele>
        <time>2018-04-14T10:53:36Z</time>
      </trkpt>
      <trkpt lat="48.63276" lon="2.12854">
        <ele>154</ele>
        <time>2018-04-14T10:53:38Z</time>
      </trkpt>
      <trkpt lat="48.63278" lon="2.12864">
        <ele>154</ele>
        <time>2018-04-14T10:53:42Z</time>
      </trkpt>
      <trkpt lat="48.63284" lon="2.12866">
        <ele>154</ele>
        <time>2018-04-14T10:53:46Z</time>
      </trkpt>
      <trkpt lat="48.63291" lon="2.1287">
        <ele>154</ele>
        <time>2018-04-14T10:53:50Z</time>
      </trkpt>
      <trkpt lat="48.63297" lon="2.12874">
        <ele>154</ele>
        <time>2018-04-14T10:53:54Z</time>
      </trkpt>
      <trkpt lat="48.63304" lon="2.12881">
        <ele>154</ele>
        <time>2018-04-14T10:53:58Z</time>
      </trkpt>
      <trkpt lat="48.63308" lon="2.12883">
        <ele>154</ele>
        <time>2018-04-14T10:54:00Z</time>
      </trkpt>
      <trkpt lat="48.63314" lon="2.12888">
        <ele>154</ele>
        <time>2018-04-14T10:54:02Z</time>
      </trkpt>
      <trkpt lat="48.63319" lon="2.1289">
        <ele>155</ele>
        <time>2018-04-14T10:54:04Z</time>
      </trkpt>
      <trkpt lat="48.63325" lon="2.12891">
        <ele>155</ele>
        <time>2018-04-14T10:54:06Z</time>
      </trkpt>
      <trkpt lat="48.6333" lon="2.12891">
        <ele>155</ele>
        <time>2018-04-14T10:54:08Z</time>
      </trkpt>
      <trkpt lat="48.63335" lon="2.12891">
        <ele>158</ele>
        <time>2018-04-14T10:54:10Z</time>
      </trkpt>
      <trkpt lat="48.63342" lon="2.129">
        <ele>158</ele>
        <time>2018-04-14T10:54:14Z</time>
      </trkpt>
      <trkpt lat="48.63347" lon="2.129">
        <ele>158</ele>
        <time>2018-04-14T10:54:16Z</time>
      </trkpt>
      <trkpt lat="48.63352" lon="2.12902">
        <ele>158</ele>
        <time>2018-04-14T10:54:18Z</time>
      </trkpt>
      <trkpt lat="48.63358" lon="2.12901">
        <ele>158</ele>
        <time>2018-04-14T10:54:20Z</time>
      </trkpt>
      <trkpt lat="48.63363" lon="2.12899">
        <ele>159</ele>
        <time>2018-04-14T10:54:22Z</time>
      </trkpt>
      <trkpt lat="48.63368" lon="2.12896">
        <ele>159</ele>
        <time>2018-04-14T10:54:26Z</time>
      </trkpt>
      <trkpt lat="48.63374" lon="2.12892">
        <ele>159</ele>
        <time>2018-04-14T10:54:30Z</time>
      </trkpt>
      <trkpt lat="48.63378" lon="2.12886">
        <ele>160</ele>
        <time>2018-04-14T10:54:34Z</time>
      </trkpt>
      <trkpt lat="48.63384" lon="2.12882">
        <ele>160</ele>
        <time>2018-04-14T10:54:38Z</time>
      </trkpt>
      <trkpt lat="48.63388" lon="2.1288">
        <ele>160</ele>
        <time>2018-04-14T10:54:42Z</time>
      </trkpt>
      <trkpt lat="48.63394" lon="2.12883">
        <ele>160</ele>
        <time>2018-04-14T10:54:46Z</time>
      </trkpt>
      <trkpt lat="48.634" lon="2.12883">
        <ele>160</ele>
        <time>2018-04-14T10:54:50Z</time>
      </trkpt>
      <trkpt lat="48.63406" lon="2.12885">
        <ele>160</ele>
        <time>2018-04-14T10:54:54Z</time>
      </trkpt>
      <trkpt lat="48.63411" lon="2.12889">
        <ele>160</ele>
        <time>2018-04-14T10:54:58Z</time>
      </trkpt>
      <trkpt lat="48.63417" lon="2.12892">
        <ele>164</ele>
        <time>2018-04-14T10:55:02Z</time>
      </trkpt>
      <trkpt lat="48.63422" lon="2.12896">
        <ele>164</ele>
        <time>2018-04-14T10:55:06Z</time>
      </trkpt>
      <trkpt lat="48.63426" lon="2.12897">
        <ele>164</ele>
        <time>2018-04-14T10:55:10Z</time>
      </trkpt>
      <trkpt lat="48.63432" lon="2.12898">
        <ele>164</ele>
        <time>2018-04-14T10:55:16Z</time>
      </trkpt>
      <trkpt lat="48.63439" lon="2.129">
        <ele>165</ele>
        <time>2018-04-14T10:55:22Z</time>
      </trkpt>
      <trkpt lat="48.63445" lon="2.12901">
        <ele>165</ele>
        <time>2018-04-14T10:55:28Z</time>
      </trkpt>
      <trkpt lat="48.6345" lon="2.12902">
        <ele>166</ele>
        <time>2018-04-14T10:55:34Z</time>
      </trkpt>
      <trkpt lat="48.63454" lon="2.12899">
        <ele>166</ele>
        <time>2018-04-14T10:55:40Z</time>
      </trkpt>
      <trkpt lat="48.6346" lon="2.12896">
        <ele>167</ele>
        <time>2018-04-14T10:55:46Z</time>
      </trkpt>
      <trkpt lat="48.63466" lon="2.12896">
        <ele>167</ele>
        <time>2018-04-14T10:55:52Z</time>
      </trkpt>
      <trkpt lat="48.63472" lon="2.12896">
        <ele>168</ele>
        <time>2018-04-14T10:55:58Z</time>
      </trkpt>
      <trkpt lat="48.63477" lon="2.12896">
        <ele>168</ele>
        <time>2018-04-14T10:56:02Z</time>
      </trkpt>
      <trkpt lat="48.63484" lon="2.12892">
        <ele>168</ele>
        <time>2018-04-14T10:56:08Z</time>
      </trkpt>
      <trkpt lat="48.6349" lon="2.12893">
        <ele>169</ele>
        <time>2018-04-14T10:56:12Z</time>
      </trkpt>
      <trkpt lat="48.63496" lon="2.12893">
        <ele>169</ele>
        <time>2018-04-14T10:56:16Z</time>
      </trkpt>
      <trkpt lat="48.63501" lon="2.12894">
        <ele>172</ele>
        <time>2018-04-14T10:56:20Z</time>
      </trkpt>
      <trkpt lat="48.63507" lon="2.12897">
        <ele>172</ele>
        <time>2018-04-14T10:56:24Z</time>
      </trkpt>
      <trkpt lat="48.63513" lon="2.12908">
        <ele>172</ele>
        <time>2018-04-14T10:56:28Z</time>
      </trkpt>
      <trkpt lat="48.63516" lon="2.12915">
        <ele>172</ele>
        <time>2018-04-14T10:56:30Z</time>
      </trkpt>
      <trkpt lat="48.6352" lon="2.12921">
        <ele>173</ele>
        <time>2018-04-14T10:56:32Z</time>
      </trkpt>
      <trkpt lat="48.63523" lon="2.12928">
        <ele>173</ele>
        <time>2018-04-14T10:56:34Z</time>
      </trkpt>
      <trkpt lat="48.63526" lon="2.12935">
        <ele>173</ele>
        <time>2018-04-14T10:56:36Z</time>
      </trkpt>
      <trkpt lat="48.63531" lon="2.12942">
        <ele>174</ele>
        <time>2018-04-14T10:56:38Z</time>
      </trkpt>
      <trkpt lat="48.63533" lon="2.12948">
        <ele>174</ele>
        <time>2018-04-14T10:56:40Z</time>
      </trkpt>
      <trkpt lat="48.63535" lon="2.12957">
        <ele>174</ele>
        <time>2018-04-14T10:56:42Z</time>
      </trkpt>
      <trkpt lat="48.63537" lon="2.12966">
        <ele>174</ele>
        <time>2018-04-14T10:56:44Z</time>
      </trkpt>
      <trkpt lat="48.63538" lon="2.12973">
        <ele>174</ele>
        <time>2018-04-14T10:56:46Z</time>
      </trkpt>
      <trkpt lat="48.63538" lon="2.12985">
        <ele>174</ele>
        <time>2018-04-14T10:56:48Z</time>
      </trkpt>
      <trkpt lat="48.63537" lon="2.12994">
        <ele>174</ele>
        <time>2018-04-14T10:56:50Z</time>
      </trkpt>
      <trkpt lat="48.63537" lon="2.13004">
        <ele>175</ele>
        <time>2018-04-14T10:56:52Z</time>
      </trkpt>
      <trkpt lat="48.63538" lon="2.13015">
        <ele>175</ele>
        <time>2018-04-14T10:56:54Z</time>
      </trkpt>
      <trkpt lat="48.6354" lon="2.13029">
        <ele>175</ele>
        <time>2018-04-14T10:56:56Z</time>
      </trkpt>
      <trkpt lat="48.6354" lon="2.1304">
        <ele>175</ele>
        <time>2018-04-14T10:56:58Z</time>
      </trkpt>
      <trkpt lat="48.63536" lon="2.13048">
        <ele>175</ele>
        <time>2018-04-14T10:57:00Z</time>
      </trkpt>
      <trkpt lat="48.63535" lon="2.13059">
        <ele>175</ele>
        <time>2018-04-14T10:57:02Z</time>
      </trkpt>
      <trkpt lat="48.63532" lon="2.13069">
        <ele>175</ele>
        <time>2018-04-14T10:57:04Z</time>
      </trkpt>
      <trkpt lat="48.63531" lon="2.1308">
        <ele>175</ele>
        <time>2018-04-14T10:57:06Z</time>
      </trkpt>
      <trkpt lat="48.6353" lon="2.13088">
        <ele>175</ele>
        <time>2018-04-14T10:57:08Z</time>
      </trkpt>
      <trkpt lat="48.63524" lon="2.13091">
        <ele>175</ele>
        <time>2018-04-14T10:57:10Z</time>
      </trkpt>
      <trkpt lat="48.63516" lon="2.13095">
        <ele>175</ele>
        <time>2018-04-14T10:57:12Z</time>
      </trkpt>
      <trkpt lat="48.63509" lon="2.131">
        <ele>176</ele>
        <time>2018-04-14T10:57:14Z</time>
      </trkpt>
      <trkpt lat="48.63504" lon="2.13105">
        <ele>176</ele>
        <time>2018-04-14T10:57:16Z</time>
      </trkpt>
      <trkpt lat="48.635" lon="2.1311">
        <ele>174</ele>
        <time>2018-04-14T10:57:18Z</time>
      </trkpt>
      <trkpt lat="48.63495" lon="2.13116">
        <ele>174</ele>
        <time>2018-04-14T10:57:20Z</time>
      </trkpt>
      <trkpt lat="48.63491" lon="2.1312">
        <ele>174</ele>
        <time>2018-04-14T10:57:22Z</time>
      </trkpt>
      <trkpt lat="48.63485" lon="2.13128">
        <ele>174</ele>
        <time>2018-04-14T10:57:24Z</time>
      </trkpt>
      <trkpt lat="48.6348" lon="2.13135">
        <ele>174</ele>
        <time>2018-04-14T10:57:26Z</time>
      </trkpt>
      <trkpt lat="48.63474" lon="2.13142">
        <ele>174</ele>
        <time>2018-04-14T10:57:28Z</time>
      </trkpt>
      <trkpt lat="48.6347" lon="2.1315">
        <ele>174</ele>
        <time>2018-04-14T10:57:30Z</time>
      </trkpt>
      <trkpt lat="48.63465" lon="2.13157">
        <ele>174</ele>
        <time>2018-04-14T10:57:32Z</time>
      </trkpt>
      <trkpt lat="48.63459" lon="2.13166">
        <ele>173</ele>
        <time>2018-04-14T10:57:34Z</time>
      </trkpt>
      <trkpt lat="48.63453" lon="2.13175">
        <ele>174</ele>
        <time>2018-04-14T10:57:36Z</time>
      </trkpt>
      <trkpt lat="48.63448" lon="2.13183">
        <ele>174</ele>
        <time>2018-04-14T10:57:38Z</time>
      </trkpt>
      <trkpt lat="48.63445" lon="2.13187">
        <ele>174</ele>
        <time>2018-04-14T10:57:40Z</time>
      </trkpt>
      <trkpt lat="48.63442" lon="2.13198">
        <ele>174</ele>
        <time>2018-04-14T10:57:42Z</time>
      </trkpt>
      <trkpt lat="48.63436" lon="2.13204">
        <ele>174</ele>
        <time>2018-04-14T10:57:44Z</time>
      </trkpt>
      <trkpt lat="48.63428" lon="2.13211">
        <ele>174</ele>
        <time>2018-04-14T10:57:46Z</time>
      </trkpt>
      <trkpt lat="48.63424" lon="2.13218">
        <ele>174</ele>
        <time>2018-04-14T10:57:48Z</time>
      </trkpt>
      <trkpt lat="48.63421" lon="2.13229">
        <ele>174</ele>
        <time>2018-04-14T10:57:50Z</time>
      </trkpt>
      <trkpt lat="48.63416" lon="2.13235">
        <ele>174</ele>
        <time>2018-04-14T10:57:52Z</time>
      </trkpt>
      <trkpt lat="48.63412" lon="2.13239">
        <ele>174</ele>
        <time>2018-04-14T10:57:54Z</time>
      </trkpt>
      <trkpt lat="48.63404" lon="2.13243">
        <ele>174</ele>
        <time>2018-04-14T10:57:56Z</time>
      </trkpt>
      <trkpt lat="48.63398" lon="2.13241">
        <ele>174</ele>
        <time>2018-04-14T10:57:58Z</time>
      </trkpt>
      <trkpt lat="48.63393" lon="2.13238">
        <ele>173</ele>
        <time>2018-04-14T10:58:00Z</time>
      </trkpt>
      <trkpt lat="48.63387" lon="2.13231">
        <ele>173</ele>
        <time>2018-04-14T10:58:02Z</time>
      </trkpt>
      <trkpt lat="48.63383" lon="2.13223">
        <ele>173</ele>
        <time>2018-04-14T10:58:04Z</time>
      </trkpt>
      <trkpt lat="48.6338" lon="2.13216">
        <ele>173</ele>
        <time>2018-04-14T10:58:06Z</time>
      </trkpt>
      <trkpt lat="48.63375" lon="2.13207">
        <ele>172</ele>
        <time>2018-04-14T10:58:08Z</time>
      </trkpt>
      <trkpt lat="48.63371" lon="2.13197">
        <ele>172</ele>
        <time>2018-04-14T10:58:10Z</time>
      </trkpt>
      <trkpt lat="48.63365" lon="2.13186">
        <ele>172</ele>
        <time>2018-04-14T10:58:12Z</time>
      </trkpt>
      <trkpt lat="48.6336" lon="2.13178">
        <ele>172</ele>
        <time>2018-04-14T10:58:14Z</time>
      </trkpt>
      <trkpt lat="48.63356" lon="2.13167">
        <ele>171</ele>
        <time>2018-04-14T10:58:16Z</time>
      </trkpt>
      <trkpt lat="48.63347" lon="2.13159">
        <ele>169</ele>
        <time>2018-04-14T10:58:18Z</time>
      </trkpt>
      <trkpt lat="48.63341" lon="2.13149">
        <ele>169</ele>
        <time>2018-04-14T10:58:20Z</time>
      </trkpt>
      <trkpt lat="48.63335" lon="2.13147">
        <ele>169</ele>
        <time>2018-04-14T10:58:22Z</time>
      </trkpt>
      <trkpt lat="48.63329" lon="2.13144">
        <ele>167</ele>
        <time>2018-04-14T10:58:24Z</time>
      </trkpt>
      <trkpt lat="48.63324" lon="2.13137">
        <ele>166</ele>
        <time>2018-04-14T10:58:26Z</time>
      </trkpt>
      <trkpt lat="48.63318" lon="2.13129">
        <ele>166</ele>
        <time>2018-04-14T10:58:28Z</time>
      </trkpt>
      <trkpt lat="48.6331" lon="2.13118">
        <ele>165</ele>
        <time>2018-04-14T10:58:30Z</time>
      </trkpt>
      <trkpt lat="48.63301" lon="2.13107">
        <ele>164</ele>
        <time>2018-04-14T10:58:32Z</time>
      </trkpt>
      <trkpt lat="48.63296" lon="2.13097">
        <ele>164</ele>
        <time>2018-04-14T10:58:34Z</time>
      </trkpt>
      <trkpt lat="48.63289" lon="2.1309">
        <ele>164</ele>
        <time>2018-04-14T10:58:36Z</time>
      </trkpt>
      <trkpt lat="48.6328" lon="2.13085">
        <ele>163</ele>
        <time>2018-04-14T10:58:38Z</time>
      </trkpt>
      <trkpt lat="48.63266" lon="2.13079">
        <ele>159</ele>
        <time>2018-04-14T10:58:40Z</time>
      </trkpt>
      <trkpt lat="48.63256" lon="2.13072">
        <ele>159</ele>
        <time>2018-04-14T10:58:42Z</time>
      </trkpt>
      <trkpt lat="48.63252" lon="2.1307">
        <ele>159</ele>
        <time>2018-04-14T10:58:44Z</time>
      </trkpt>
      <trkpt lat="48.63246" lon="2.13069">
        <ele>156</ele>
        <time>2018-04-14T10:58:46Z</time>
      </trkpt>
      <trkpt lat="48.63241" lon="2.13066">
        <ele>156</ele>
        <time>2018-04-14T10:58:48Z</time>
      </trkpt>
      <trkpt lat="48.63236" lon="2.13061">
        <ele>155</ele>
        <time>2018-04-14T10:58:50Z</time>
      </trkpt>
      <trkpt lat="48.63228" lon="2.13054">
        <ele>154</ele>
        <time>2018-04-14T10:58:52Z</time>
      </trkpt>
      <trkpt lat="48.63218" lon="2.13047">
        <ele>154</ele>
        <time>2018-04-14T10:58:54Z</time>
      </trkpt>
      <trkpt lat="48.63208" lon="2.13044">
        <ele>153</ele>
        <time>2018-04-14T10:58:56Z</time>
      </trkpt>
      <trkpt lat="48.63195" lon="2.13042">
        <ele>152</ele>
        <time>2018-04-14T10:58:58Z</time>
      </trkpt>
      <trkpt lat="48.63186" lon="2.13041">
        <ele>152</ele>
        <time>2018-04-14T10:59:00Z</time>
      </trkpt>
      <trkpt lat="48.63178" lon="2.13043">
        <ele>152</ele>
        <time>2018-04-14T10:59:02Z</time>
      </trkpt>
      <trkpt lat="48.63173" lon="2.13048">
        <ele>152</ele>
        <time>2018-04-14T10:59:04Z</time>
      </trkpt>
      <trkpt lat="48.63171" lon="2.13054">
        <ele>152</ele>
        <time>2018-04-14T10:59:06Z</time>
      </trkpt>
      <trkpt lat="48.63176" lon="2.13066">
        <ele>152</ele>
        <time>2018-04-14T10:59:10Z</time>
      </trkpt>
      <trkpt lat="48.6318" lon="2.13072">
        <ele>152</ele>
        <time>2018-04-14T10:59:12Z</time>
      </trkpt>
      <trkpt lat="48.63183" lon="2.13078">
        <ele>152</ele>
        <time>2018-04-14T10:59:14Z</time>
      </trkpt>
      <trkpt lat="48.63188" lon="2.13086">
        <ele>155</ele>
        <time>2018-04-14T10:59:18Z</time>
      </trkpt>
      <trkpt lat="48.6319" lon="2.13093">
        <ele>155</ele>
        <time>2018-04-14T10:59:22Z</time>
      </trkpt>
      <trkpt lat="48.63194" lon="2.13102">
        <ele>156</ele>
        <time>2018-04-14T10:59:26Z</time>
      </trkpt>
      <trkpt lat="48.632" lon="2.13111">
        <ele>156</ele>
        <time>2018-04-14T10:59:30Z</time>
      </trkpt>
      <trkpt lat="48.63205" lon="2.13117">
        <ele>157</ele>
        <time>2018-04-14T10:59:34Z</time>
      </trkpt>
      <trkpt lat="48.63211" lon="2.13126">
        <ele>157</ele>
        <time>2018-04-14T10:59:38Z</time>
      </trkpt>
      <trkpt lat="48.63216" lon="2.13133">
        <ele>158</ele>
        <time>2018-04-14T10:59:42Z</time>
      </trkpt>
      <trkpt lat="48.63221" lon="2.13139">
        <ele>158</ele>
        <time>2018-04-14T10:59:46Z</time>
      </trkpt>
      <trkpt lat="48.63226" lon="2.13146">
        <ele>159</ele>
        <time>2018-04-14T10:59:50Z</time>
      </trkpt>
      <trkpt lat="48.6323" lon="2.13154">
        <ele>160</ele>
        <time>2018-04-14T10:59:54Z</time>
      </trkpt>
      <trkpt lat="48.63233" lon="2.13161">
        <ele>161</ele>
        <time>2018-04-14T10:59:58Z</time>
      </trkpt>
      <trkpt lat="48.63236" lon="2.13168">
        <ele>163</ele>
        <time>2018-04-14T11:00:02Z</time>
      </trkpt>
      <trkpt lat="48.6324" lon="2.13175">
        <ele>163</ele>
        <time>2018-04-14T11:00:08Z</time>
      </trkpt>
      <trkpt lat="48.63245" lon="2.13181">
        <ele>163</ele>
        <time>2018-04-14T11:00:14Z</time>
      </trkpt>
      <trkpt lat="48.63249" lon="2.13186">
        <ele>163</ele>
        <time>2018-04-14T11:00:18Z</time>
      </trkpt>
      <trkpt lat="48.63252" lon="2.13192">
        <ele>167</ele>
        <time>2018-04-14T11:00:22Z</time>
      </trkpt>
      <trkpt lat="48.63254" lon="2.13199">
        <ele>168</ele>
        <time>2018-04-14T11:00:26Z</time>
      </trkpt>
      <trkpt lat="48.63257" lon="2.13206">
        <ele>169</ele>
        <time>2018-04-14T11:00:32Z</time>
      </trkpt>
      <trkpt lat="48.63258" lon="2.13215">
        <ele>169</ele>
        <time>2018-04-14T11:00:36Z</time>
      </trkpt>
      <trkpt lat="48.63259" lon="2.13223">
        <ele>169</ele>
        <time>2018-04-14T11:00:40Z</time>
      </trkpt>
      <trkpt lat="48.63258" lon="2.13234">
        <ele>170</ele>
        <time>2018-04-14T11:00:46Z</time>
      </trkpt>
      <trkpt lat="48.63259" lon="2.13244">
        <ele>170</ele>
        <time>2018-04-14T11:00:52Z</time>
      </trkpt>
      <trkpt lat="48.63258" lon="2.13252">
        <ele>171</ele>
        <time>2018-04-14T11:00:56Z</time>
      </trkpt>
      <trkpt lat="48.63257" lon="2.13261">
        <ele>171</ele>
        <time>2018-04-14T11:01:02Z</time>
      </trkpt>
      <trkpt lat="48.63258" lon="2.1327">
        <ele>172</ele>
        <time>2018-04-14T11:01:08Z</time>
      </trkpt>
      <trkpt lat="48.6326" lon="2.1328">
        <ele>172</ele>
        <time>2018-04-14T11:01:14Z</time>
      </trkpt>
      <trkpt lat="48.6326" lon="2.13289">
        <ele>173</ele>
        <time>2018-04-14T11:01:18Z</time>
      </trkpt>
      <trkpt lat="48.63263" lon="2.13297">
        <ele>173</ele>
        <time>2018-04-14T11:01:22Z</time>
      </trkpt>
      <trkpt lat="48.63268" lon="2.13306">
        <ele>173</ele>
        <time>2018-04-14T11:01:26Z</time>
      </trkpt>
      <trkpt lat="48.63273" lon="2.13312">
        <ele>173</ele>
        <time>2018-04-14T11:01:30Z</time>
      </trkpt>
      <trkpt lat="48.63276" lon="2.13319">
        <ele>173</ele>
        <time>2018-04-14T11:01:34Z</time>
      </trkpt>
      <trkpt lat="48.63282" lon="2.13328">
        <ele>173</ele>
        <time>2018-04-14T11:01:38Z</time>
      </trkpt>
      <trkpt lat="48.63287" lon="2.13331">
        <ele>174</ele>
        <time>2018-04-14T11:01:40Z</time>
      </trkpt>
      <trkpt lat="48.63294" lon="2.13338">
        <ele>175</ele>
        <time>2018-04-14T11:01:44Z</time>
      </trkpt>
      <trkpt lat="48.63298" lon="2.13344">
        <ele>175</ele>
        <time>2018-04-14T11:01:46Z</time>
      </trkpt>
      <trkpt lat="48.63302" lon="2.13349">
        <ele>175</ele>
        <time>2018-04-14T11:01:48Z</time>
      </trkpt>
      <trkpt lat="48.63307" lon="2.13359">
        <ele>175</ele>
        <time>2018-04-14T11:01:52Z</time>
      </trkpt>
      <trkpt lat="48.6331" lon="2.13365">
        <ele>175</ele>
        <time>2018-04-14T11:01:54Z</time>
      </trkpt>
      <trkpt lat="48.6331" lon="2.13374">
        <ele>175</ele>
        <time>2018-04-14T11:01:58Z</time>
      </trkpt>
      <trkpt lat="48.63307" lon="2.13385">
        <ele>175</ele>
        <time>2018-04-14T11:02:02Z</time>
      </trkpt>
      <trkpt lat="48.63303" lon="2.13393">
        <ele>175</ele>
        <time>2018-04-14T11:02:06Z</time>
      </trkpt>
      <trkpt lat="48.63296" lon="2.13402">
        <ele>175</ele>
        <time>2018-04-14T11:02:10Z</time>
      </trkpt>
      <trkpt lat="48.63292" lon="2.13406">
        <ele>175</ele>
        <time>2018-04-14T11:02:12Z</time>
      </trkpt>
      <trkpt lat="48.6329" lon="2.13413">
        <ele>176</ele>
        <time>2018-04-14T11:02:14Z</time>
      </trkpt>
      <trkpt lat="48.63287" lon="2.13419">
        <ele>176</ele>
        <time>2018-04-14T11:02:16Z</time>
      </trkpt>
      <trkpt lat="48.63283" lon="2.13426">
        <ele>176</ele>
        <time>2018-04-14T11:02:18Z</time>
      </trkpt>
      <trkpt lat="48.63279" lon="2.13433">
        <ele>176</ele>
        <time>2018-04-14T11:02:20Z</time>
      </trkpt>
      <trkpt lat="48.63276" lon="2.13438">
        <ele>176</ele>
        <time>2018-04-14T11:02:22Z</time>
      </trkpt>
      <trkpt lat="48.63272" lon="2.13444">
        <ele>176</ele>
        <time>2018-04-14T11:02:24Z</time>
      </trkpt>
      <trkpt lat="48.63267" lon="2.1345">
        <ele>176</ele>
        <time>2018-04-14T11:02:26Z</time>
      </trkpt>
      <trkpt lat="48.63263" lon="2.13461">
        <ele>176</ele>
        <time>2018-04-14T11:02:30Z</time>
      </trkpt>
      <trkpt lat="48.63265" lon="2.13475">
        <ele>176</ele>
        <time>2018-04-14T11:02:34Z</time>
      </trkpt>
      <trkpt lat="48.63267" lon="2.13482">
        <ele>176</ele>
        <time>2018-04-14T11:02:36Z</time>
      </trkpt>
      <trkpt lat="48.63271" lon="2.13489">
        <ele>176</ele>
        <time>2018-04-14T11:02:38Z</time>
      </trkpt>
      <trkpt lat="48.63275" lon="2.13496">
        <ele>176</ele>
        <time>2018-04-14T11:02:40Z</time>
      </trkpt>
      <trkpt lat="48.63276" lon="2.13505">
        <ele>174</ele>
        <time>2018-04-14T11:02:42Z</time>
      </trkpt>
      <trkpt lat="48.63278" lon="2.13513">
        <ele>174</ele>
        <time>2018-04-14T11:02:44Z</time>
      </trkpt>
      <trkpt lat="48.63271" lon="2.13521">
        <ele>174</ele>
        <time>2018-04-14T11:02:48Z</time>
      </trkpt>
      <trkpt lat="48.63265" lon="2.13527">
        <ele>174</ele>
        <time>2018-04-14T11:02:50Z</time>
      </trkpt>
      <trkpt lat="48.6326" lon="2.1353">
        <ele>174</ele>
        <time>2018-04-14T11:02:52Z</time>
      </trkpt>
      <trkpt lat="48.63253" lon="2.13536">
        <ele>174</ele>
        <time>2018-04-14T11:02:54Z</time>
      </trkpt>
      <trkpt lat="48.63247" lon="2.13542">
        <ele>175</ele>
        <time>2018-04-14T11:02:56Z</time>
      </trkpt>
      <trkpt lat="48.63242" lon="2.13547">
        <ele>175</ele>
        <time>2018-04-14T11:02:58Z</time>
      </trkpt>
      <trkpt lat="48.63236" lon="2.13554">
        <ele>175</ele>
        <time>2018-04-14T11:03:00Z</time>
      </trkpt>
      <trkpt lat="48.6323" lon="2.13562">
        <ele>175</ele>
        <time>2018-04-14T11:03:02Z</time>
      </trkpt>
      <trkpt lat="48.63224" lon="2.13568">
        <ele>175</ele>
        <time>2018-04-14T11:03:04Z</time>
      </trkpt>
      <trkpt lat="48.63217" lon="2.13575">
        <ele>175</ele>
        <time>2018-04-14T11:03:06Z</time>
      </trkpt>
      <trkpt lat="48.63211" lon="2.13581">
        <ele>175</ele>
        <time>2018-04-14T11:03:08Z</time>
      </trkpt>
      <trkpt lat="48.63204" lon="2.13588">
        <ele>173</ele>
        <time>2018-04-14T11:03:10Z</time>
      </trkpt>
      <trkpt lat="48.63196" lon="2.13599">
        <ele>173</ele>
        <time>2018-04-14T11:03:12Z</time>
      </trkpt>
      <trkpt lat="48.6319" lon="2.13606">
        <ele>173</ele>
        <time>2018-04-14T11:03:14Z</time>
      </trkpt>
      <trkpt lat="48.63183" lon="2.13614">
        <ele>173</ele>
        <time>2018-04-14T11:03:16Z</time>
      </trkpt>
      <trkpt lat="48.63178" lon="2.1362">
        <ele>173</ele>
        <time>2018-04-14T11:03:18Z</time>
      </trkpt>
      <trkpt lat="48.63173" lon="2.13627">
        <ele>173</ele>
        <time>2018-04-14T11:03:20Z</time>
      </trkpt>
      <trkpt lat="48.63167" lon="2.13634">
        <ele>173</ele>
        <time>2018-04-14T11:03:22Z</time>
      </trkpt>
      <trkpt lat="48.63161" lon="2.1364">
        <ele>173</ele>
        <time>2018-04-14T11:03:24Z</time>
      </trkpt>
      <trkpt lat="48.63158" lon="2.13646">
        <ele>173</ele>
        <time>2018-04-14T11:03:26Z</time>
      </trkpt>
      <trkpt lat="48.63155" lon="2.13652">
        <ele>173</ele>
        <time>2018-04-14T11:03:28Z</time>
      </trkpt>
      <trkpt lat="48.6315" lon="2.13658">
        <ele>173</ele>
        <time>2018-04-14T11:03:32Z</time>
      </trkpt>
      <trkpt lat="48.63146" lon="2.1366">
        <ele>173</ele>
        <time>2018-04-14T11:04:10Z</time>
      </trkpt>
      <trkpt lat="48.63145" lon="2.13667">
        <ele>172</ele>
        <time>2018-04-14T11:04:42Z</time>
      </trkpt>
      <trkpt lat="48.6314" lon="2.13672">
        <ele>172</ele>
        <time>2018-04-14T11:05:44Z</time>
      </trkpt>
      <trkpt lat="48.63134" lon="2.13677">
        <ele>172</ele>
        <time>2018-04-14T11:05:48Z</time>
      </trkpt>
      <trkpt lat="48.6313" lon="2.13686">
        <ele>172</ele>
        <time>2018-04-14T11:05:52Z</time>
      </trkpt>
      <trkpt lat="48.63122" lon="2.13694">
        <ele>171</ele>
        <time>2018-04-14T11:05:56Z</time>
      </trkpt>
      <trkpt lat="48.63115" lon="2.13703">
        <ele>171</ele>
        <time>2018-04-14T11:06:00Z</time>
      </trkpt>
      <trkpt lat="48.63111" lon="2.13708">
        <ele>171</ele>
        <time>2018-04-14T11:06:02Z</time>
      </trkpt>
      <trkpt lat="48.63106" lon="2.13712">
        <ele>171</ele>
        <time>2018-04-14T11:06:04Z</time>
      </trkpt>
      <trkpt lat="48.63102" lon="2.13718">
        <ele>171</ele>
        <time>2018-04-14T11:06:06Z</time>
      </trkpt>
      <trkpt lat="48.63097" lon="2.13723">
        <ele>172</ele>
        <time>2018-04-14T11:06:08Z</time>
      </trkpt>
      <trkpt lat="48.63091" lon="2.13731">
        <ele>172</ele>
        <time>2018-04-14T11:06:10Z</time>
      </trkpt>
      <trkpt lat="48.63086" lon="2.13737">
        <ele>172</ele>
        <time>2018-04-14T11:06:12Z</time>
      </trkpt>
      <trkpt lat="48.63083" lon="2.13742">
        <ele>172</ele>
        <time>2018-04-14T11:06:14Z</time>
      </trkpt>
      <trkpt lat="48.63078" lon="2.13748">
        <ele>172</ele>
        <time>2018-04-14T11:06:16Z</time>
      </trkpt>
      <trkpt lat="48.63073" lon="2.13752">
        <ele>171</ele>
        <time>2018-04-14T11:06:18Z</time>
      </trkpt>
      <trkpt lat="48.63064" lon="2.13747">
        <ele>171</ele>
        <time>2018-04-14T11:06:22Z</time>
      </trkpt>
      <trkpt lat="48.63058" lon="2.13743">
        <ele>171</ele>
        <time>2018-04-14T11:06:24Z</time>
      </trkpt>
      <trkpt lat="48.63053" lon="2.1374">
        <ele>171</ele>
        <time>2018-04-14T11:06:26Z</time>
      </trkpt>
      <trkpt lat="48.63046" lon="2.13733">
        <ele>171</ele>
        <time>2018-04-14T11:06:28Z</time>
      </trkpt>
      <trkpt lat="48.6304" lon="2.13728">
        <ele>170</ele>
        <time>2018-04-14T11:06:30Z</time>
      </trkpt>
      <trkpt lat="48.63035" lon="2.13719">
        <ele>170</ele>
        <time>2018-04-14T11:06:32Z</time>
      </trkpt>
      <trkpt lat="48.63028" lon="2.13711">
        <ele>170</ele>
        <time>2018-04-14T11:06:34Z</time>
      </trkpt>
      <trkpt lat="48.63023" lon="2.13704">
        <ele>170</ele>
        <time>2018-04-14T11:06:36Z</time>
      </trkpt>
      <trkpt lat="48.63015" lon="2.13699">
        <ele>170</ele>
        <time>2018-04-14T11:06:38Z</time>
      </trkpt>
      <trkpt lat="48.6301" lon="2.13692">
        <ele>171</ele>
        <time>2018-04-14T11:06:40Z</time>
      </trkpt>
      <trkpt lat="48.63006" lon="2.13684">
        <ele>171</ele>
        <time>2018-04-14T11:06:42Z</time>
      </trkpt>
      <trkpt lat="48.63001" lon="2.13675">
        <ele>171</ele>
        <time>2018-04-14T11:06:44Z</time>
      </trkpt>
      <trkpt lat="48.62996" lon="2.1367">
        <ele>170</ele>
        <time>2018-04-14T11:06:46Z</time>
      </trkpt>
      <trkpt lat="48.62992" lon="2.13663">
        <ele>170</ele>
        <time>2018-04-14T11:06:48Z</time>
      </trkpt>
      <trkpt lat="48.62985" lon="2.13655">
        <ele>170</ele>
        <time>2018-04-14T11:06:50Z</time>
      </trkpt>
      <trkpt lat="48.62979" lon="2.13647">
        <ele>169</ele>
        <time>2018-04-14T11:06:52Z</time>
      </trkpt>
      <trkpt lat="48.62972" lon="2.13639">
        <ele>169</ele>
        <time>2018-04-14T11:06:54Z</time>
      </trkpt>
      <trkpt lat="48.62965" lon="2.13631">
        <ele>169</ele>
        <time>2018-04-14T11:06:56Z</time>
      </trkpt>
      <trkpt lat="48.62958" lon="2.13622">
        <ele>168</ele>
        <time>2018-04-14T11:06:58Z</time>
      </trkpt>
      <trkpt lat="48.62951" lon="2.13614">
        <ele>168</ele>
        <time>2018-04-14T11:07:00Z</time>
      </trkpt>
      <trkpt lat="48.62945" lon="2.13603">
        <ele>168</ele>
        <time>2018-04-14T11:07:02Z</time>
      </trkpt>
      <trkpt lat="48.6294" lon="2.13594">
        <ele>168</ele>
        <time>2018-04-14T11:07:04Z</time>
      </trkpt>
      <trkpt lat="48.62937" lon="2.13584">
        <ele>168</ele>
        <time>2018-04-14T11:07:06Z</time>
      </trkpt>
      <trkpt lat="48.62933" lon="2.13576">
        <ele>167</ele>
        <time>2018-04-14T11:07:08Z</time>
      </trkpt>
      <trkpt lat="48.6293" lon="2.1357">
        <ele>167</ele>
        <time>2018-04-14T11:07:10Z</time>
      </trkpt>
      <trkpt lat="48.62925" lon="2.13562">
        <ele>167</ele>
        <time>2018-04-14T11:07:14Z</time>
      </trkpt>
      <trkpt lat="48.6292" lon="2.13556">
        <ele>167</ele>
        <time>2018-04-14T11:07:18Z</time>
      </trkpt>
      <trkpt lat="48.62916" lon="2.13551">
        <ele>166</ele>
        <time>2018-04-14T11:07:20Z</time>
      </trkpt>
      <trkpt lat="48.62913" lon="2.13538">
        <ele>166</ele>
        <time>2018-04-14T11:07:24Z</time>
      </trkpt>
      <trkpt lat="48.62906" lon="2.13528">
        <ele>166</ele>
        <time>2018-04-14T11:07:26Z</time>
      </trkpt>
      <trkpt lat="48.62899" lon="2.13523">
        <ele>166</ele>
        <time>2018-04-14T11:07:28Z</time>
      </trkpt>
      <trkpt lat="48.62894" lon="2.13519">
        <ele>166</ele>
        <time>2018-04-14T11:07:30Z</time>
      </trkpt>
      <trkpt lat="48.62887" lon="2.1351">
        <ele>166</ele>
        <time>2018-04-14T11:07:32Z</time>
      </trkpt>
      <trkpt lat="48.62882" lon="2.13505">
        <ele>166</ele>
        <time>2018-04-14T11:07:34Z</time>
      </trkpt>
      <trkpt lat="48.62876" lon="2.135">
        <ele>165</ele>
        <time>2018-04-14T11:07:36Z</time>
      </trkpt>
      <trkpt lat="48.62872" lon="2.13493">
        <ele>165</ele>
        <time>2018-04-14T11:07:38Z</time>
      </trkpt>
      <trkpt lat="48.62869" lon="2.13481">
        <ele>164</ele>
        <time>2018-04-14T11:07:40Z</time>
      </trkpt>
      <trkpt lat="48.62868" lon="2.13469">
        <ele>164</ele>
        <time>2018-04-14T11:07:42Z</time>
      </trkpt>
      <trkpt lat="48.62869" lon="2.13456">
        <ele>164</ele>
        <time>2018-04-14T11:07:44Z</time>
      </trkpt>
      <trkpt lat="48.6287" lon="2.13443">
        <ele>164</ele>
        <time>2018-04-14T11:07:46Z</time>
      </trkpt>
      <trkpt lat="48.6287" lon="2.13427">
        <ele>164</ele>
        <time>2018-04-14T11:07:48Z</time>
      </trkpt>
      <trkpt lat="48.6287" lon="2.1341">
        <ele>160</ele>
        <time>2018-04-14T11:07:50Z</time>
      </trkpt>
      <trkpt lat="48.6287" lon="2.13397">
        <ele>160</ele>
        <time>2018-04-14T11:07:52Z</time>
      </trkpt>
      <trkpt lat="48.62869" lon="2.13384">
        <ele>159</ele>
        <time>2018-04-14T11:07:54Z</time>
      </trkpt>
      <trkpt lat="48.62869" lon="2.13375">
        <ele>159</ele>
        <time>2018-04-14T11:07:56Z</time>
      </trkpt>
      <trkpt lat="48.62873" lon="2.13371">
        <ele>159</ele>
        <time>2018-04-14T11:08:00Z</time>
      </trkpt>
      <trkpt lat="48.62878" lon="2.13363">
        <ele>158</ele>
        <time>2018-04-14T11:08:04Z</time>
      </trkpt>
      <trkpt lat="48.62881" lon="2.13356">
        <ele>158</ele>
        <time>2018-04-14T11:08:08Z</time>
      </trkpt>
      <trkpt lat="48.62888" lon="2.13353">
        <ele>158</ele>
        <time>2018-04-14T11:08:12Z</time>
      </trkpt>
      <trkpt lat="48.6289" lon="2.1334">
        <ele>157</ele>
        <time>2018-04-14T11:08:16Z</time>
      </trkpt>
      <trkpt lat="48.62885" lon="2.13326">
        <ele>153</ele>
        <time>2018-04-14T11:08:18Z</time>
      </trkpt>
      <trkpt lat="48.62884" lon="2.1331">
        <ele>153</ele>
        <time>2018-04-14T11:08:20Z</time>
      </trkpt>
      <trkpt lat="48.62879" lon="2.13298">
        <ele>152</ele>
        <time>2018-04-14T11:08:22Z</time>
      </trkpt>
      <trkpt lat="48.6287" lon="2.13288">
        <ele>152</ele>
        <time>2018-04-14T11:08:24Z</time>
      </trkpt>
      <trkpt lat="48.62868" lon="2.13282">
        <ele>152</ele>
        <time>2018-04-14T11:08:26Z</time>
      </trkpt>
      <trkpt lat="48.62871" lon="2.13276">
        <ele>152</ele>
        <time>2018-04-14T11:08:28Z</time>
      </trkpt>
      <trkpt lat="48.62879" lon="2.13265">
        <ele>151</ele>
        <time>2018-04-14T11:08:30Z</time>
      </trkpt>
      <trkpt lat="48.62891" lon="2.13249">
        <ele>147</ele>
        <time>2018-04-14T11:08:32Z</time>
      </trkpt>
      <trkpt lat="48.62896" lon="2.1324">
        <ele>147</ele>
        <time>2018-04-14T11:08:34Z</time>
      </trkpt>
      <trkpt lat="48.62902" lon="2.13235">
        <ele>147</ele>
        <time>2018-04-14T11:08:36Z</time>
      </trkpt>
      <trkpt lat="48.62909" lon="2.13233">
        <ele>147</ele>
        <time>2018-04-14T11:08:38Z</time>
      </trkpt>
      <trkpt lat="48.62913" lon="2.13225">
        <ele>146</ele>
        <time>2018-04-14T11:08:40Z</time>
      </trkpt>
      <trkpt lat="48.62915" lon="2.13216">
        <ele>146</ele>
        <time>2018-04-14T11:08:42Z</time>
      </trkpt>
      <trkpt lat="48.62914" lon="2.13209">
        <ele>146</ele>
        <time>2018-04-14T11:08:44Z</time>
      </trkpt>
      <trkpt lat="48.62908" lon="2.13206">
        <ele>145</ele>
        <time>2018-04-14T11:08:46Z</time>
      </trkpt>
      <trkpt lat="48.62901" lon="2.13205">
        <ele>145</ele>
        <time>2018-04-14T11:08:48Z</time>
      </trkpt>
      <trkpt lat="48.62896" lon="2.13196">
        <ele>145</ele>
        <time>2018-04-14T11:08:52Z</time>
      </trkpt>
      <trkpt lat="48.6289" lon="2.13189">
        <ele>145</ele>
        <time>2018-04-14T11:08:54Z</time>
      </trkpt>
      <trkpt lat="48.62882" lon="2.13182">
        <ele>145</ele>
        <time>2018-04-14T11:08:56Z</time>
      </trkpt>
      <trkpt lat="48.62874" lon="2.13173">
        <ele>145</ele>
        <time>2018-04-14T11:08:58Z</time>
      </trkpt>
      <trkpt lat="48.62865" lon="2.13173">
        <ele>145</ele>
        <time>2018-04-14T11:09:00Z</time>
      </trkpt>
      <trkpt lat="48.62857" lon="2.13173">
        <ele>145</ele>
        <time>2018-04-14T11:09:02Z</time>
      </trkpt>
      <trkpt lat="48.62847" lon="2.13168">
        <ele>144</ele>
        <time>2018-04-14T11:09:04Z</time>
      </trkpt>
      <trkpt lat="48.62842" lon="2.13155">
        <ele>142</ele>
        <time>2018-04-14T11:09:06Z</time>
      </trkpt>
      <trkpt lat="48.62839" lon="2.13144">
        <ele>142</ele>
        <time>2018-04-14T11:09:08Z</time>
      </trkpt>
      <trkpt lat="48.62832" lon="2.13135">
        <ele>143</ele>
        <time>2018-04-14T11:09:10Z</time>
      </trkpt>
      <trkpt lat="48.62832" lon="2.13128">
        <ele>142</ele>
        <time>2018-04-14T11:09:12Z</time>
      </trkpt>
      <trkpt lat="48.62838" lon="2.13124">
        <ele>141</ele>
        <time>2018-04-14T11:09:14Z</time>
      </trkpt>
      <trkpt lat="48.62848" lon="2.13123">
        <ele>141</ele>
        <time>2018-04-14T11:09:16Z</time>
      </trkpt>
      <trkpt lat="48.62857" lon="2.13125">
        <ele>141</ele>
        <time>2018-04-14T11:09:18Z</time>
      </trkpt>
      <trkpt lat="48.62867" lon="2.13126">
        <ele>141</ele>
        <time>2018-04-14T11:09:22Z</time>
      </trkpt>
      <trkpt lat="48.62872" lon="2.13126">
        <ele>141</ele>
        <time>2018-04-14T11:09:24Z</time>
      </trkpt>
      <trkpt lat="48.62878" lon="2.1312">
        <ele>141</ele>
        <time>2018-04-14T11:09:26Z</time>
      </trkpt>
      <trkpt lat="48.6288" lon="2.13112">
        <ele>141</ele>
        <time>2018-04-14T11:09:28Z</time>
      </trkpt>
      <trkpt lat="48.62876" lon="2.13097">
        <ele>141</ele>
        <time>2018-04-14T11:09:30Z</time>
      </trkpt>
      <trkpt lat="48.62872" lon="2.13085">
        <ele>141</ele>
        <time>2018-04-14T11:09:32Z</time>
      </trkpt>
      <trkpt lat="48.62867" lon="2.13073">
        <ele>138</ele>
        <time>2018-04-14T11:09:34Z</time>
      </trkpt>
      <trkpt lat="48.62863" lon="2.1306">
        <ele>138</ele>
        <time>2018-04-14T11:09:36Z</time>
      </trkpt>
      <trkpt lat="48.62855" lon="2.13047">
        <ele>138</ele>
        <time>2018-04-14T11:09:38Z</time>
      </trkpt>
      <trkpt lat="48.62849" lon="2.13033">
        <ele>137</ele>
        <time>2018-04-14T11:09:40Z</time>
      </trkpt>
      <trkpt lat="48.62843" lon="2.1302">
        <ele>137</ele>
        <time>2018-04-14T11:09:42Z</time>
      </trkpt>
      <trkpt lat="48.62834" lon="2.13007">
        <ele>136</ele>
        <time>2018-04-14T11:09:44Z</time>
      </trkpt>
      <trkpt lat="48.62828" lon="2.12992">
        <ele>135</ele>
        <time>2018-04-14T11:09:46Z</time>
      </trkpt>
      <trkpt lat="48.62818" lon="2.12975">
        <ele>135</ele>
        <time>2018-04-14T11:09:48Z</time>
      </trkpt>
      <trkpt lat="48.62807" lon="2.12961">
        <ele>134</ele>
        <time>2018-04-14T11:09:50Z</time>
      </trkpt>
      <trkpt lat="48.62796" lon="2.12952">
        <ele>134</ele>
        <time>2018-04-14T11:09:52Z</time>
      </trkpt>
      <trkpt lat="48.62787" lon="2.12953">
        <ele>134</ele>
        <time>2018-04-14T11:09:54Z</time>
      </trkpt>
      <trkpt lat="48.62781" lon="2.12958">
        <ele>134</ele>
        <time>2018-04-14T11:09:56Z</time>
      </trkpt>
      <trkpt lat="48.62781" lon="2.12968">
        <ele>134</ele>
        <time>2018-04-14T11:10:00Z</time>
      </trkpt>
      <trkpt lat="48.62781" lon="2.12978">
        <ele>134</ele>
        <time>2018-04-14T11:10:06Z</time>
      </trkpt>
      <trkpt lat="48.62782" lon="2.12987">
        <ele>134</ele>
        <time>2018-04-14T11:10:10Z</time>
      </trkpt>
      <trkpt lat="48.62782" lon="2.12996">
        <ele>134</ele>
        <time>2018-04-14T11:10:14Z</time>
      </trkpt>
      <trkpt lat="48.62784" lon="2.13004">
        <ele>137</ele>
        <time>2018-04-14T11:10:16Z</time>
      </trkpt>
      <trkpt lat="48.62786" lon="2.13016">
        <ele>137</ele>
        <time>2018-04-14T11:10:20Z</time>
      </trkpt>
      <trkpt lat="48.62789" lon="2.13028">
        <ele>137</ele>
        <time>2018-04-14T11:10:24Z</time>
      </trkpt>
      <trkpt lat="48.62792" lon="2.13038">
        <ele>138</ele>
        <time>2018-04-14T11:10:28Z</time>
      </trkpt>
      <trkpt lat="48.62793" lon="2.13047">
        <ele>138</ele>
        <time>2018-04-14T11:10:32Z</time>
      </trkpt>
      <trkpt lat="48.62793" lon="2.13054">
        <ele>138</ele>
        <time>2018-04-14T11:10:36Z</time>
      </trkpt>
      <trkpt lat="48.62793" lon="2.13062">
        <ele>138</ele>
        <time>2018-04-14T11:10:40Z</time>
      </trkpt>
      <trkpt lat="48.62792" lon="2.13069">
        <ele>139</ele>
        <time>2018-04-14T11:10:44Z</time>
      </trkpt>
      <trkpt lat="48.62793" lon="2.13077">
        <ele>139</ele>
        <time>2018-04-14T11:10:48Z</time>
      </trkpt>
      <trkpt lat="48.6279" lon="2.13084">
        <ele>142</ele>
        <time>2018-04-14T11:10:52Z</time>
      </trkpt>
      <trkpt lat="48.6279" lon="2.13092">
        <ele>142</ele>
        <time>2018-04-14T11:10:58Z</time>
      </trkpt>
      <trkpt lat="48.62786" lon="2.13101">
        <ele>142</ele>
        <time>2018-04-14T11:11:04Z</time>
      </trkpt>
      <trkpt lat="48.62783" lon="2.13107">
        <ele>142</ele>
        <time>2018-04-14T11:11:08Z</time>
      </trkpt>
      <trkpt lat="48.62778" lon="2.13112">
        <ele>142</ele>
        <time>2018-04-14T11:11:12Z</time>
      </trkpt>
      <trkpt lat="48.62772" lon="2.13116">
        <ele>142</ele>
        <time>2018-04-14T11:11:16Z</time>
      </trkpt>
      <trkpt lat="48.62769" lon="2.13121">
        <ele>142</ele>
        <time>2018-04-14T11:11:20Z</time>
      </trkpt>
      <trkpt lat="48.62764" lon="2.13122">
        <ele>143</ele>
        <time>2018-04-14T11:11:22Z</time>
      </trkpt>
      <trkpt lat="48.62758" lon="2.13127">
        <ele>143</ele>
        <time>2018-04-14T11:11:26Z</time>
      </trkpt>
      <trkpt lat="48.6275" lon="2.13131">
        <ele>143</ele>
        <time>2018-04-14T11:11:30Z</time>
      </trkpt>
      <trkpt lat="48.62744" lon="2.13135">
        <ele>144</ele>
        <time>2018-04-14T11:11:34Z</time>
      </trkpt>
      <trkpt lat="48.6274" lon="2.13141">
        <ele>144</ele>
        <time>2018-04-14T11:11:38Z</time>
      </trkpt>
      <trkpt lat="48.62734" lon="2.13147">
        <ele>144</ele>
        <time>2018-04-14T11:11:42Z</time>
      </trkpt>
      <trkpt lat="48.62732" lon="2.13154">
        <ele>144</ele>
        <time>2018-04-14T11:11:46Z</time>
      </trkpt>
      <trkpt lat="48.62729" lon="2.13161">
        <ele>144</ele>
        <time>2018-04-14T11:11:50Z</time>
      </trkpt>
      <trkpt lat="48.62726" lon="2.13166">
        <ele>144</ele>
        <time>2018-04-14T11:11:54Z</time>
      </trkpt>
      <trkpt lat="48.62721" lon="2.13169">
        <ele>146</ele>
        <time>2018-04-14T11:11:58Z</time>
      </trkpt>
      <trkpt lat="48.62717" lon="2.13174">
        <ele>146</ele>
        <time>2018-04-14T11:12:02Z</time>
      </trkpt>
      <trkpt lat="48.62709" lon="2.13168">
        <ele>146</ele>
        <time>2018-04-14T11:12:06Z</time>
      </trkpt>
      <trkpt lat="48.62704" lon="2.13165">
        <ele>144</ele>
        <time>2018-04-14T11:12:08Z</time>
      </trkpt>
      <trkpt lat="48.627" lon="2.13161">
        <ele>144</ele>
        <time>2018-04-14T11:12:10Z</time>
      </trkpt>
      <trkpt lat="48.62694" lon="2.13154">
        <ele>144</ele>
        <time>2018-04-14T11:12:14Z</time>
      </trkpt>
      <trkpt lat="48.6269" lon="2.13146">
        <ele>144</ele>
        <time>2018-04-14T11:12:18Z</time>
      </trkpt>
      <trkpt lat="48.62685" lon="2.13141">
        <ele>144</ele>
        <time>2018-04-14T11:12:24Z</time>
      </trkpt>
      <trkpt lat="48.6268" lon="2.13131">
        <ele>143</ele>
        <time>2018-04-14T11:12:40Z</time>
      </trkpt>
      <trkpt lat="48.62675" lon="2.13126">
        <ele>143</ele>
        <time>2018-04-14T11:12:42Z</time>
      </trkpt>
      <trkpt lat="48.6267" lon="2.13117">
        <ele>143</ele>
        <time>2018-04-14T11:12:46Z</time>
      </trkpt>
      <trkpt lat="48.62668" lon="2.13111">
        <ele>143</ele>
        <time>2018-04-14T11:12:48Z</time>
      </trkpt>
      <trkpt lat="48.62664" lon="2.13103">
        <ele>142</ele>
        <time>2018-04-14T11:12:50Z</time>
      </trkpt>
      <trkpt lat="48.62662" lon="2.13093">
        <ele>142</ele>
        <time>2018-04-14T11:12:52Z</time>
      </trkpt>
      <trkpt lat="48.62658" lon="2.13088">
        <ele>142</ele>
        <time>2018-04-14T11:12:54Z</time>
      </trkpt>
      <trkpt lat="48.62652" lon="2.13081">
        <ele>141</ele>
        <time>2018-04-14T11:12:56Z</time>
      </trkpt>
      <trkpt lat="48.62647" lon="2.13075">
        <ele>141</ele>
        <time>2018-04-14T11:12:58Z</time>
      </trkpt>
      <trkpt lat="48.6264" lon="2.13072">
        <ele>140</ele>
        <time>2018-04-14T11:13:00Z</time>
      </trkpt>
      <trkpt lat="48.62635" lon="2.13066">
        <ele>140</ele>
        <time>2018-04-14T11:13:02Z</time>
      </trkpt>
      <trkpt lat="48.62632" lon="2.13061">
        <ele>140</ele>
        <time>2018-04-14T11:13:04Z</time>
      </trkpt>
      <trkpt lat="48.62623" lon="2.13056">
        <ele>139</ele>
        <time>2018-04-14T11:13:06Z</time>
      </trkpt>
      <trkpt lat="48.62616" lon="2.13049">
        <ele>139</ele>
        <time>2018-04-14T11:13:08Z</time>
      </trkpt>
      <trkpt lat="48.62605" lon="2.13042">
        <ele>139</ele>
        <time>2018-04-14T11:13:10Z</time>
      </trkpt>
      <trkpt lat="48.62597" lon="2.13032">
        <ele>138</ele>
        <time>2018-04-14T11:13:12Z</time>
      </trkpt>
      <trkpt lat="48.62593" lon="2.13021">
        <ele>138</ele>
        <time>2018-04-14T11:13:14Z</time>
      </trkpt>
      <trkpt lat="48.6259" lon="2.13003">
        <ele>137</ele>
        <time>2018-04-14T11:13:16Z</time>
      </trkpt>
      <trkpt lat="48.6259" lon="2.12987">
        <ele>135</ele>
        <time>2018-04-14T11:13:18Z</time>
      </trkpt>
      <trkpt lat="48.62591" lon="2.12971">
        <ele>134</ele>
        <time>2018-04-14T11:13:20Z</time>
      </trkpt>
      <trkpt lat="48.62591" lon="2.12964">
        <ele>134</ele>
        <time>2018-04-14T11:13:24Z</time>
      </trkpt>
      <trkpt lat="48.62594" lon="2.12952">
        <ele>134</ele>
        <time>2018-04-14T11:13:28Z</time>
      </trkpt>
      <trkpt lat="48.62595" lon="2.12938">
        <ele>133</ele>
        <time>2018-04-14T11:13:32Z</time>
      </trkpt>
      <trkpt lat="48.62592" lon="2.12931">
        <ele>132</ele>
        <time>2018-04-14T11:13:34Z</time>
      </trkpt>
      <trkpt lat="48.62585" lon="2.12924">
        <ele>132</ele>
        <time>2018-04-14T11:13:38Z</time>
      </trkpt>
      <trkpt lat="48.62584" lon="2.12916">
        <ele>131</ele>
        <time>2018-04-14T11:13:40Z</time>
      </trkpt>
      <trkpt lat="48.6258" lon="2.12902">
        <ele>128</ele>
        <time>2018-04-14T11:13:42Z</time>
      </trkpt>
      <trkpt lat="48.62574" lon="2.12889">
        <ele>127</ele>
        <time>2018-04-14T11:13:44Z</time>
      </trkpt>
      <trkpt lat="48.62569" lon="2.12878">
        <ele>126</ele>
        <time>2018-04-14T11:13:46Z</time>
      </trkpt>
      <trkpt lat="48.62566" lon="2.12863">
        <ele>125</ele>
        <time>2018-04-14T11:13:48Z</time>
      </trkpt>
      <trkpt lat="48.62561" lon="2.12851">
        <ele>125</ele>
        <time>2018-04-14T11:13:50Z</time>
      </trkpt>
      <trkpt lat="48.62557" lon="2.12838">
        <ele>125</ele>
        <time>2018-04-14T11:13:52Z</time>
      </trkpt>
      <trkpt lat="48.62551" lon="2.12827">
        <ele>121</ele>
        <time>2018-04-14T11:13:54Z</time>
      </trkpt>
      <trkpt lat="48.62548" lon="2.12821">
        <ele>121</ele>
        <time>2018-04-14T11:13:56Z</time>
      </trkpt>
      <trkpt lat="48.62546" lon="2.12811">
        <ele>121</ele>
        <time>2018-04-14T11:13:58Z</time>
      </trkpt>
      <trkpt lat="48.62543" lon="2.12804">
        <ele>120</ele>
        <time>2018-04-14T11:14:00Z</time>
      </trkpt>
      <trkpt lat="48.62537" lon="2.12797">
        <ele>120</ele>
        <time>2018-04-14T11:14:02Z</time>
      </trkpt>
      <trkpt lat="48.62532" lon="2.12792">
        <ele>120</ele>
        <time>2018-04-14T11:14:04Z</time>
      </trkpt>
      <trkpt lat="48.62526" lon="2.12793">
        <ele>120</ele>
        <time>2018-04-14T11:14:08Z</time>
      </trkpt>
      <trkpt lat="48.62522" lon="2.12799">
        <ele>120</ele>
        <time>2018-04-14T11:14:12Z</time>
      </trkpt>
      <trkpt lat="48.62518" lon="2.12806">
        <ele>120</ele>
        <time>2018-04-14T11:14:16Z</time>
      </trkpt>
      <trkpt lat="48.62515" lon="2.12812">
        <ele>120</ele>
        <time>2018-04-14T11:14:20Z</time>
      </trkpt>
      <trkpt lat="48.62509" lon="2.12814">
        <ele>120</ele>
        <time>2018-04-14T11:14:24Z</time>
      </trkpt>
      <trkpt lat="48.62503" lon="2.12805">
        <ele>119</ele>
        <time>2018-04-14T11:14:28Z</time>
      </trkpt>
      <trkpt lat="48.625" lon="2.12799">
        <ele>116</ele>
        <time>2018-04-14T11:14:30Z</time>
      </trkpt>
      <trkpt lat="48.62496" lon="2.12792">
        <ele>116</ele>
        <time>2018-04-14T11:14:32Z</time>
      </trkpt>
      <trkpt lat="48.62491" lon="2.12784">
        <ele>116</ele>
        <time>2018-04-14T11:14:34Z</time>
      </trkpt>
    </trkseg>
  </trk>
</gpx>